<?xml version="1.0" encoding="UTF-8" standalone="no" ?>
<gpx xmlns="http://www.topografix.com/GPX/1/1" xmlns:xsi="http://www.w3.org/2001/XMLSchema-instance" xsi:schemaLocation="http://www.topografix.com/GPX/1/1 http://www.topografix.com/GPX/1/1/gpx.xsd" version="1.1" creator="VisuGPX - https://www.visugpx.com">
  <metadata>
    <name>Carrouges-&gt;Bagnoles-de-l\'Orne par GR22</name>
    <desc><![CDATA[Carrouges->Bagnoles-de-l\'Orne par GR22]]></desc>
  </metadata>
  <trk>
    <name><![CDATA[20/08/13 11:32]]></name>
    <desc><![CDATA[Jour 2]]></desc>
    <trkseg>
      <trkpt lat="48.56379" lon="-0.14817">
        <ele>359.8</ele>
        <time>2013-08-20T09:34:59Z</time>
      </trkpt>
      <trkpt lat="48.56385" lon="-0.14818">
        <ele>360.8</ele>
        <time>2013-08-20T09:35:07Z</time>
      </trkpt>
      <trkpt lat="48.56389" lon="-0.14822">
        <ele>356</ele>
        <time>2013-08-20T09:35:10Z</time>
      </trkpt>
      <trkpt lat="48.56436" lon="-0.14819">
        <ele>348</ele>
        <time>2013-08-20T09:35:55Z</time>
      </trkpt>
      <trkpt lat="48.56464" lon="-0.14843">
        <ele>349.5</ele>
        <time>2013-08-20T09:36:28Z</time>
      </trkpt>
      <trkpt lat="48.5649" lon="-0.1483">
        <ele>341</ele>
        <time>2013-08-20T09:36:52Z</time>
      </trkpt>
      <trkpt lat="48.5651" lon="-0.14778">
        <ele>353.5</ele>
        <time>2013-08-20T09:37:30Z</time>
      </trkpt>
      <trkpt lat="48.56531" lon="-0.14789">
        <ele>356</ele>
        <time>2013-08-20T09:37:55Z</time>
      </trkpt>
      <trkpt lat="48.56556" lon="-0.14749">
        <ele>348.9</ele>
        <time>2013-08-20T09:38:26Z</time>
      </trkpt>
      <trkpt lat="48.56579" lon="-0.14717">
        <ele>342.6</ele>
        <time>2013-08-20T09:38:47Z</time>
      </trkpt>
      <trkpt lat="48.56599" lon="-0.1469">
        <ele>354</ele>
        <time>2013-08-20T09:39:25Z</time>
      </trkpt>
      <trkpt lat="48.56621" lon="-0.14656">
        <ele>380.7</ele>
        <time>2013-08-20T09:39:49Z</time>
      </trkpt>
      <trkpt lat="48.56651" lon="-0.14631">
        <ele>382</ele>
        <time>2013-08-20T09:40:23Z</time>
      </trkpt>
      <trkpt lat="48.56687" lon="-0.14577">
        <ele>377</ele>
        <time>2013-08-20T09:41:06Z</time>
      </trkpt>
      <trkpt lat="48.56673" lon="-0.14572">
        <ele>408.2</ele>
        <time>2013-08-20T09:41:20Z</time>
      </trkpt>
      <trkpt lat="48.56739" lon="-0.14519">
        <ele>385.3</ele>
        <time>2013-08-20T09:42:39Z</time>
      </trkpt>
      <trkpt lat="48.56706" lon="-0.14493">
        <ele>385.1</ele>
        <time>2013-08-20T09:42:54Z</time>
      </trkpt>
      <trkpt lat="48.56719" lon="-0.14442">
        <ele>385.3</ele>
        <time>2013-08-20T09:43:19Z</time>
      </trkpt>
      <trkpt lat="48.56725" lon="-0.14433">
        <ele>383.8</ele>
        <time>2013-08-20T09:44:45Z</time>
      </trkpt>
      <trkpt lat="48.5668" lon="-0.14428">
        <ele>378.8</ele>
        <time>2013-08-20T09:47:44Z</time>
      </trkpt>
      <trkpt lat="48.56675" lon="-0.1443">
        <ele>379</ele>
        <time>2013-08-20T09:50:52Z</time>
      </trkpt>
      <trkpt lat="48.56661" lon="-0.14408">
        <ele>406</ele>
        <time>2013-08-20T09:52:01Z</time>
      </trkpt>
      <trkpt lat="48.56672" lon="-0.14415">
        <ele>405.9</ele>
        <time>2013-08-20T09:53:15Z</time>
      </trkpt>
      <trkpt lat="48.56673" lon="-0.14424">
        <ele>404.8</ele>
        <time>2013-08-20T09:54:29Z</time>
      </trkpt>
      <trkpt lat="48.56678" lon="-0.14427">
        <ele>403.4</ele>
        <time>2013-08-20T09:55:55Z</time>
      </trkpt>
      <trkpt lat="48.56673" lon="-0.14425">
        <ele>403.8</ele>
        <time>2013-08-20T09:56:29Z</time>
      </trkpt>
      <trkpt lat="48.56706" lon="-0.14451">
        <ele>384.9</ele>
        <time>2013-08-20T09:59:09Z</time>
      </trkpt>
      <trkpt lat="48.56712" lon="-0.14455">
        <ele>383.8</ele>
        <time>2013-08-20T09:59:25Z</time>
      </trkpt>
      <trkpt lat="48.56767" lon="-0.14442">
        <ele>379.3</ele>
        <time>2013-08-20T10:00:11Z</time>
      </trkpt>
      <trkpt lat="48.56772" lon="-0.14441">
        <ele>396.3</ele>
        <time>2013-08-20T10:00:26Z</time>
      </trkpt>
      <trkpt lat="48.56786" lon="-0.14478">
        <ele>397.6</ele>
        <time>2013-08-20T10:00:54Z</time>
      </trkpt>
      <trkpt lat="48.56808" lon="-0.14532">
        <ele>418.4</ele>
        <time>2013-08-20T10:01:25Z</time>
      </trkpt>
      <trkpt lat="48.56855" lon="-0.14558">
        <ele>418.3</ele>
        <time>2013-08-20T10:01:57Z</time>
      </trkpt>
      <trkpt lat="48.56866" lon="-0.14593">
        <ele>400.5</ele>
        <time>2013-08-20T10:02:20Z</time>
      </trkpt>
      <trkpt lat="48.5687" lon="-0.14632">
        <ele>391.2</ele>
        <time>2013-08-20T10:03:00Z</time>
      </trkpt>
      <trkpt lat="48.56895" lon="-0.14709">
        <ele>390</ele>
        <time>2013-08-20T10:03:29Z</time>
      </trkpt>
      <trkpt lat="48.56894" lon="-0.14746">
        <ele>379</ele>
        <time>2013-08-20T10:03:56Z</time>
      </trkpt>
      <trkpt lat="48.569" lon="-0.14773">
        <ele>377.5</ele>
        <time>2013-08-20T10:04:20Z</time>
      </trkpt>
      <trkpt lat="48.56905" lon="-0.1484">
        <ele>358.1</ele>
        <time>2013-08-20T10:04:53Z</time>
      </trkpt>
      <trkpt lat="48.56908" lon="-0.14893">
        <ele>356.1</ele>
        <time>2013-08-20T10:05:32Z</time>
      </trkpt>
      <trkpt lat="48.5691" lon="-0.14944">
        <ele>363.8</ele>
        <time>2013-08-20T10:05:54Z</time>
      </trkpt>
      <trkpt lat="48.56926" lon="-0.14971">
        <ele>351.9</ele>
        <time>2013-08-20T10:06:23Z</time>
      </trkpt>
      <trkpt lat="48.56952" lon="-0.14996">
        <ele>380</ele>
        <time>2013-08-20T10:06:50Z</time>
      </trkpt>
      <trkpt lat="48.56955" lon="-0.15037">
        <ele>371.7</ele>
        <time>2013-08-20T10:07:18Z</time>
      </trkpt>
      <trkpt lat="48.56988" lon="-0.15085">
        <ele>427.3</ele>
        <time>2013-08-20T10:07:50Z</time>
      </trkpt>
      <trkpt lat="48.5698" lon="-0.15137">
        <ele>339.5</ele>
        <time>2013-08-20T10:08:26Z</time>
      </trkpt>
      <trkpt lat="48.56954" lon="-0.15203">
        <ele>340</ele>
        <time>2013-08-20T10:08:49Z</time>
      </trkpt>
      <trkpt lat="48.56998" lon="-0.15238">
        <ele>374.7</ele>
        <time>2013-08-20T10:09:28Z</time>
      </trkpt>
      <trkpt lat="48.57011" lon="-0.15274">
        <ele>410</ele>
        <time>2013-08-20T10:09:57Z</time>
      </trkpt>
      <trkpt lat="48.57032" lon="-0.15325">
        <ele>408.3</ele>
        <time>2013-08-20T10:10:27Z</time>
      </trkpt>
      <trkpt lat="48.57003" lon="-0.15345">
        <ele>362</ele>
        <time>2013-08-20T10:10:55Z</time>
      </trkpt>
      <trkpt lat="48.57033" lon="-0.15414">
        <ele>360.5</ele>
        <time>2013-08-20T10:11:26Z</time>
      </trkpt>
      <trkpt lat="48.57033" lon="-0.15426">
        <ele>364.8</ele>
        <time>2013-08-20T10:12:06Z</time>
      </trkpt>
      <trkpt lat="48.57033" lon="-0.15413">
        <ele>370</ele>
        <time>2013-08-20T10:12:16Z</time>
      </trkpt>
      <trkpt lat="48.57045" lon="-0.15465">
        <ele>379.2</ele>
        <time>2013-08-20T10:13:44Z</time>
      </trkpt>
      <trkpt lat="48.5705" lon="-0.15567">
        <ele>359.6</ele>
        <time>2013-08-20T10:14:37Z</time>
      </trkpt>
      <trkpt lat="48.57062" lon="-0.15644">
        <ele>351.5</ele>
        <time>2013-08-20T10:15:28Z</time>
      </trkpt>
      <trkpt lat="48.57094" lon="-0.15813">
        <ele>378.5</ele>
        <time>2013-08-20T10:17:13Z</time>
      </trkpt>
      <trkpt lat="48.57116" lon="-0.15832">
        <ele>405.6</ele>
        <time>2013-08-20T10:17:42Z</time>
      </trkpt>
      <trkpt lat="48.57129" lon="-0.15909">
        <ele>352.3</ele>
        <time>2013-08-20T10:18:35Z</time>
      </trkpt>
      <trkpt lat="48.57141" lon="-0.15992">
        <ele>276.9</ele>
        <time>2013-08-20T10:19:33Z</time>
      </trkpt>
      <trkpt lat="48.57176" lon="-0.1604">
        <ele>368</ele>
        <time>2013-08-20T10:20:06Z</time>
      </trkpt>
      <trkpt lat="48.57155" lon="-0.16045">
        <ele>368.2</ele>
        <time>2013-08-20T10:20:25Z</time>
      </trkpt>
      <trkpt lat="48.57136" lon="-0.16054">
        <ele>362.8</ele>
        <time>2013-08-20T10:20:49Z</time>
      </trkpt>
      <trkpt lat="48.57116" lon="-0.16044">
        <ele>361</ele>
        <time>2013-08-20T10:21:20Z</time>
      </trkpt>
      <trkpt lat="48.57068" lon="-0.16042">
        <ele>360.8</ele>
        <time>2013-08-20T10:21:49Z</time>
      </trkpt>
      <trkpt lat="48.57039" lon="-0.16042">
        <ele>360.7</ele>
        <time>2013-08-20T10:22:19Z</time>
      </trkpt>
      <trkpt lat="48.56992" lon="-0.16042">
        <ele>360.6</ele>
        <time>2013-08-20T10:22:49Z</time>
      </trkpt>
      <trkpt lat="48.56971" lon="-0.16034">
        <ele>360.6</ele>
        <time>2013-08-20T10:23:20Z</time>
      </trkpt>
      <trkpt lat="48.56923" lon="-0.16044">
        <ele>342.9</ele>
        <time>2013-08-20T10:23:57Z</time>
      </trkpt>
      <trkpt lat="48.56859" lon="-0.16045">
        <ele>374.5</ele>
        <time>2013-08-20T10:24:53Z</time>
      </trkpt>
      <trkpt lat="48.56825" lon="-0.1604">
        <ele>374.3</ele>
        <time>2013-08-20T10:25:25Z</time>
      </trkpt>
      <trkpt lat="48.56794" lon="-0.16046">
        <ele>374.2</ele>
        <time>2013-08-20T10:25:49Z</time>
      </trkpt>
      <trkpt lat="48.56772" lon="-0.16023">
        <ele>374.1</ele>
        <time>2013-08-20T10:26:20Z</time>
      </trkpt>
      <trkpt lat="48.5674" lon="-0.16038">
        <ele>369.8</ele>
        <time>2013-08-20T10:26:53Z</time>
      </trkpt>
      <trkpt lat="48.56741" lon="-0.16024">
        <ele>369.6</ele>
        <time>2013-08-20T10:27:21Z</time>
      </trkpt>
      <trkpt lat="48.56715" lon="-0.16009">
        <ele>298.2</ele>
        <time>2013-08-20T10:27:54Z</time>
      </trkpt>
      <trkpt lat="48.5669" lon="-0.16042">
        <ele>316.4</ele>
        <time>2013-08-20T10:28:22Z</time>
      </trkpt>
      <trkpt lat="48.56666" lon="-0.16081">
        <ele>313.4</ele>
        <time>2013-08-20T10:28:49Z</time>
      </trkpt>
      <trkpt lat="48.56673" lon="-0.16155">
        <ele>312.4</ele>
        <time>2013-08-20T10:29:28Z</time>
      </trkpt>
      <trkpt lat="48.56677" lon="-0.16213">
        <ele>340.3</ele>
        <time>2013-08-20T10:29:57Z</time>
      </trkpt>
      <trkpt lat="48.56677" lon="-0.16268">
        <ele>364.7</ele>
        <time>2013-08-20T10:30:24Z</time>
      </trkpt>
      <trkpt lat="48.56649" lon="-0.16302">
        <ele>305.4</ele>
        <time>2013-08-20T10:30:49Z</time>
      </trkpt>
      <trkpt lat="48.56658" lon="-0.16355">
        <ele>320.1</ele>
        <time>2013-08-20T10:31:19Z</time>
      </trkpt>
      <trkpt lat="48.56657" lon="-0.16393">
        <ele>322.2</ele>
        <time>2013-08-20T10:31:53Z</time>
      </trkpt>
      <trkpt lat="48.56675" lon="-0.16436">
        <ele>303.9</ele>
        <time>2013-08-20T10:32:56Z</time>
      </trkpt>
      <trkpt lat="48.56699" lon="-0.16508">
        <ele>343.1</ele>
        <time>2013-08-20T10:33:22Z</time>
      </trkpt>
      <trkpt lat="48.567" lon="-0.16573">
        <ele>379.6</ele>
        <time>2013-08-20T10:33:51Z</time>
      </trkpt>
      <trkpt lat="48.56708" lon="-0.1658">
        <ele>374.4</ele>
        <time>2013-08-20T10:34:35Z</time>
      </trkpt>
      <trkpt lat="48.56689" lon="-0.16645">
        <ele>325.5</ele>
        <time>2013-08-20T10:35:13Z</time>
      </trkpt>
      <trkpt lat="48.56654" lon="-0.16715">
        <ele>351.4</ele>
        <time>2013-08-20T10:36:01Z</time>
      </trkpt>
      <trkpt lat="48.56653" lon="-0.1675">
        <ele>302.1</ele>
        <time>2013-08-20T10:36:21Z</time>
      </trkpt>
      <trkpt lat="48.56639" lon="-0.16814">
        <ele>315.4</ele>
        <time>2013-08-20T10:37:00Z</time>
      </trkpt>
      <trkpt lat="48.56653" lon="-0.16885">
        <ele>304.6</ele>
        <time>2013-08-20T10:37:31Z</time>
      </trkpt>
      <trkpt lat="48.56638" lon="-0.1692">
        <ele>307.7</ele>
        <time>2013-08-20T10:37:52Z</time>
      </trkpt>
      <trkpt lat="48.56623" lon="-0.16955">
        <ele>324.9</ele>
        <time>2013-08-20T10:38:23Z</time>
      </trkpt>
      <trkpt lat="48.56621" lon="-0.17015">
        <ele>324</ele>
        <time>2013-08-20T10:38:52Z</time>
      </trkpt>
      <trkpt lat="48.56614" lon="-0.17061">
        <ele>312.6</ele>
        <time>2013-08-20T10:39:22Z</time>
      </trkpt>
      <trkpt lat="48.56592" lon="-0.17116">
        <ele>305.7</ele>
        <time>2013-08-20T10:39:56Z</time>
      </trkpt>
      <trkpt lat="48.5659" lon="-0.17159">
        <ele>315.7</ele>
        <time>2013-08-20T10:40:21Z</time>
      </trkpt>
      <trkpt lat="48.56568" lon="-0.1721">
        <ele>312</ele>
        <time>2013-08-20T10:40:53Z</time>
      </trkpt>
      <trkpt lat="48.56572" lon="-0.17274">
        <ele>337.8</ele>
        <time>2013-08-20T10:41:26Z</time>
      </trkpt>
      <trkpt lat="48.56562" lon="-0.17317">
        <ele>303.5</ele>
        <time>2013-08-20T10:41:51Z</time>
      </trkpt>
      <trkpt lat="48.56556" lon="-0.17368">
        <ele>298.1</ele>
        <time>2013-08-20T10:42:20Z</time>
      </trkpt>
      <trkpt lat="48.5655" lon="-0.17437">
        <ele>298.1</ele>
        <time>2013-08-20T10:42:54Z</time>
      </trkpt>
      <trkpt lat="48.56554" lon="-0.17482">
        <ele>302.8</ele>
        <time>2013-08-20T10:43:21Z</time>
      </trkpt>
      <trkpt lat="48.56528" lon="-0.17522">
        <ele>283.6</ele>
        <time>2013-08-20T10:43:49Z</time>
      </trkpt>
      <trkpt lat="48.56539" lon="-0.17582">
        <ele>308.2</ele>
        <time>2013-08-20T10:44:21Z</time>
      </trkpt>
      <trkpt lat="48.56538" lon="-0.17601">
        <ele>308.6</ele>
        <time>2013-08-20T10:44:51Z</time>
      </trkpt>
      <trkpt lat="48.56524" lon="-0.17704">
        <ele>309.3</ele>
        <time>2013-08-20T10:45:28Z</time>
      </trkpt>
      <trkpt lat="48.56525" lon="-0.17767">
        <ele>301.9</ele>
        <time>2013-08-20T10:45:59Z</time>
      </trkpt>
      <trkpt lat="48.56526" lon="-0.17789">
        <ele>304.6</ele>
        <time>2013-08-20T10:46:26Z</time>
      </trkpt>
      <trkpt lat="48.56533" lon="-0.17871">
        <ele>305.4</ele>
        <time>2013-08-20T10:46:54Z</time>
      </trkpt>
      <trkpt lat="48.56546" lon="-0.17923">
        <ele>302.9</ele>
        <time>2013-08-20T10:47:25Z</time>
      </trkpt>
      <trkpt lat="48.56526" lon="-0.1799">
        <ele>306.3</ele>
        <time>2013-08-20T10:48:04Z</time>
      </trkpt>
      <trkpt lat="48.56548" lon="-0.18041">
        <ele>308.8</ele>
        <time>2013-08-20T10:48:25Z</time>
      </trkpt>
      <trkpt lat="48.56539" lon="-0.18082">
        <ele>308.9</ele>
        <time>2013-08-20T10:48:53Z</time>
      </trkpt>
      <trkpt lat="48.56536" lon="-0.18193">
        <ele>308.8</ele>
        <time>2013-08-20T10:50:14Z</time>
      </trkpt>
      <trkpt lat="48.56543" lon="-0.1823">
        <ele>314.4</ele>
        <time>2013-08-20T10:50:44Z</time>
      </trkpt>
      <trkpt lat="48.56539" lon="-0.18303">
        <ele>320</ele>
        <time>2013-08-20T10:51:35Z</time>
      </trkpt>
      <trkpt lat="48.56518" lon="-0.1847">
        <ele>297.2</ele>
        <time>2013-08-20T10:52:36Z</time>
      </trkpt>
      <trkpt lat="48.56475" lon="-0.18454">
        <ele>295</ele>
        <time>2013-08-20T10:52:56Z</time>
      </trkpt>
      <trkpt lat="48.56495" lon="-0.18533">
        <ele>338.4</ele>
        <time>2013-08-20T10:53:27Z</time>
      </trkpt>
      <trkpt lat="48.56508" lon="-0.186">
        <ele>351.7</ele>
        <time>2013-08-20T10:54:03Z</time>
      </trkpt>
      <trkpt lat="48.56483" lon="-0.18641">
        <ele>351</ele>
        <time>2013-08-20T10:54:40Z</time>
      </trkpt>
      <trkpt lat="48.56478" lon="-0.18638">
        <ele>351</ele>
        <time>2013-08-20T10:55:05Z</time>
      </trkpt>
      <trkpt lat="48.56482" lon="-0.18642">
        <ele>350.8</ele>
        <time>2013-08-20T10:56:14Z</time>
      </trkpt>
      <trkpt lat="48.5649" lon="-0.18731">
        <ele>328.1</ele>
        <time>2013-08-20T10:58:14Z</time>
      </trkpt>
      <trkpt lat="48.56498" lon="-0.18752">
        <ele>327.9</ele>
        <time>2013-08-20T10:58:44Z</time>
      </trkpt>
      <trkpt lat="48.56509" lon="-0.18808">
        <ele>332.1</ele>
        <time>2013-08-20T10:59:13Z</time>
      </trkpt>
      <trkpt lat="48.56516" lon="-0.18946">
        <ele>368.9</ele>
        <time>2013-08-20T11:00:36Z</time>
      </trkpt>
      <trkpt lat="48.56465" lon="-0.1916">
        <ele>368.8</ele>
        <time>2013-08-20T11:02:37Z</time>
      </trkpt>
      <trkpt lat="48.56382" lon="-0.19154">
        <ele>348.5</ele>
        <time>2013-08-20T11:03:27Z</time>
      </trkpt>
      <trkpt lat="48.56344" lon="-0.19239">
        <ele>335.9</ele>
        <time>2013-08-20T11:04:37Z</time>
      </trkpt>
      <trkpt lat="48.56328" lon="-0.19264">
        <ele>367.2</ele>
        <time>2013-08-20T11:05:10Z</time>
      </trkpt>
      <trkpt lat="48.56093" lon="-0.19375">
        <ele>342.1</ele>
        <time>2013-08-20T11:09:07Z</time>
      </trkpt>
      <trkpt lat="48.55965" lon="-0.19457">
        <ele>409</ele>
        <time>2013-08-20T11:12:04Z</time>
      </trkpt>
      <trkpt lat="48.55954" lon="-0.19444">
        <ele>403.7</ele>
        <time>2013-08-20T11:12:24Z</time>
      </trkpt>
      <trkpt lat="48.55909" lon="-0.19419">
        <ele>361.8</ele>
        <time>2013-08-20T11:13:03Z</time>
      </trkpt>
      <trkpt lat="48.55515" lon="-0.19439">
        <ele>371.4</ele>
        <time>2013-08-20T11:19:42Z</time>
      </trkpt>
      <trkpt lat="48.55519" lon="-0.19452">
        <ele>386.2</ele>
        <time>2013-08-20T11:19:56Z</time>
      </trkpt>
      <trkpt lat="48.55538" lon="-0.19515">
        <ele>384.2</ele>
        <time>2013-08-20T11:20:42Z</time>
      </trkpt>
      <trkpt lat="48.55563" lon="-0.19558">
        <ele>384.2</ele>
        <time>2013-08-20T11:21:09Z</time>
      </trkpt>
      <trkpt lat="48.55596" lon="-0.19583">
        <ele>377.7</ele>
        <time>2013-08-20T11:21:37Z</time>
      </trkpt>
      <trkpt lat="48.55627" lon="-0.19654">
        <ele>411.2</ele>
        <time>2013-08-20T11:22:00Z</time>
      </trkpt>
      <trkpt lat="48.55618" lon="-0.19662">
        <ele>350.9</ele>
        <time>2013-08-20T11:22:29Z</time>
      </trkpt>
      <trkpt lat="48.55646" lon="-0.19681">
        <ele>360.2</ele>
        <time>2013-08-20T11:22:59Z</time>
      </trkpt>
      <trkpt lat="48.55766" lon="-0.19799">
        <ele>353.3</ele>
        <time>2013-08-20T11:25:09Z</time>
      </trkpt>
      <trkpt lat="48.55794" lon="-0.19834">
        <ele>463.7</ele>
        <time>2013-08-20T11:25:31Z</time>
      </trkpt>
      <trkpt lat="48.55808" lon="-0.19907">
        <ele>369.7</ele>
        <time>2013-08-20T11:26:24Z</time>
      </trkpt>
      <trkpt lat="48.55825" lon="-0.20019">
        <ele>344.1</ele>
        <time>2013-08-20T11:27:28Z</time>
      </trkpt>
      <trkpt lat="48.55853" lon="-0.20081">
        <ele>346.5</ele>
        <time>2013-08-20T11:28:10Z</time>
      </trkpt>
      <trkpt lat="48.55869" lon="-0.20131">
        <ele>360.2</ele>
        <time>2013-08-20T11:28:44Z</time>
      </trkpt>
      <trkpt lat="48.55876" lon="-0.20173">
        <ele>366.1</ele>
        <time>2013-08-20T11:29:14Z</time>
      </trkpt>
      <trkpt lat="48.55891" lon="-0.20221">
        <ele>365.8</ele>
        <time>2013-08-20T11:29:44Z</time>
      </trkpt>
      <trkpt lat="48.55904" lon="-0.20267">
        <ele>362.9</ele>
        <time>2013-08-20T11:30:13Z</time>
      </trkpt>
      <trkpt lat="48.55925" lon="-0.2032">
        <ele>368.8</ele>
        <time>2013-08-20T11:30:54Z</time>
      </trkpt>
      <trkpt lat="48.55969" lon="-0.20403">
        <ele>347.4</ele>
        <time>2013-08-20T11:31:36Z</time>
      </trkpt>
      <trkpt lat="48.55992" lon="-0.20417">
        <ele>354.4</ele>
        <time>2013-08-20T11:32:05Z</time>
      </trkpt>
      <trkpt lat="48.56014" lon="-0.20479">
        <ele>355</ele>
        <time>2013-08-20T11:32:58Z</time>
      </trkpt>
      <trkpt lat="48.56054" lon="-0.20516">
        <ele>355</ele>
        <time>2013-08-20T11:33:32Z</time>
      </trkpt>
      <trkpt lat="48.56108" lon="-0.20554">
        <ele>378</ele>
        <time>2013-08-20T11:34:28Z</time>
      </trkpt>
      <trkpt lat="48.56138" lon="-0.20586">
        <ele>374.9</ele>
        <time>2013-08-20T11:35:04Z</time>
      </trkpt>
      <trkpt lat="48.56159" lon="-0.20628">
        <ele>353.1</ele>
        <time>2013-08-20T11:35:42Z</time>
      </trkpt>
      <trkpt lat="48.56142" lon="-0.20624">
        <ele>363</ele>
        <time>2013-08-20T11:35:54Z</time>
      </trkpt>
      <trkpt lat="48.56126" lon="-0.20636">
        <ele>348.6</ele>
        <time>2013-08-20T11:36:33Z</time>
      </trkpt>
      <trkpt lat="48.56085" lon="-0.2069">
        <ele>369.4</ele>
        <time>2013-08-20T11:36:53Z</time>
      </trkpt>
      <trkpt lat="48.56056" lon="-0.20734">
        <ele>365.6</ele>
        <time>2013-08-20T11:37:25Z</time>
      </trkpt>
      <trkpt lat="48.56032" lon="-0.2077">
        <ele>368</ele>
        <time>2013-08-20T11:37:52Z</time>
      </trkpt>
      <trkpt lat="48.56012" lon="-0.20815">
        <ele>347.1</ele>
        <time>2013-08-20T11:38:23Z</time>
      </trkpt>
      <trkpt lat="48.55995" lon="-0.20858">
        <ele>355.8</ele>
        <time>2013-08-20T11:38:58Z</time>
      </trkpt>
      <trkpt lat="48.55997" lon="-0.20869">
        <ele>354.7</ele>
        <time>2013-08-20T11:39:23Z</time>
      </trkpt>
      <trkpt lat="48.55995" lon="-0.20847">
        <ele>361.5</ele>
        <time>2013-08-20T11:39:55Z</time>
      </trkpt>
      <trkpt lat="48.55994" lon="-0.20854">
        <ele>356.6</ele>
        <time>2013-08-20T11:40:26Z</time>
      </trkpt>
      <trkpt lat="48.56" lon="-0.20848">
        <ele>356.2</ele>
        <time>2013-08-20T11:40:53Z</time>
      </trkpt>
      <trkpt lat="48.55991" lon="-0.20849">
        <ele>364.4</ele>
        <time>2013-08-20T11:41:23Z</time>
      </trkpt>
      <trkpt lat="48.56002" lon="-0.20874">
        <ele>365.8</ele>
        <time>2013-08-20T11:41:56Z</time>
      </trkpt>
      <trkpt lat="48.55989" lon="-0.20853">
        <ele>335.6</ele>
        <time>2013-08-20T11:42:49Z</time>
      </trkpt>
      <trkpt lat="48.55982" lon="-0.20848">
        <ele>352</ele>
        <time>2013-08-20T11:43:20Z</time>
      </trkpt>
      <trkpt lat="48.55975" lon="-0.209">
        <ele>386.5</ele>
        <time>2013-08-20T11:43:49Z</time>
      </trkpt>
      <trkpt lat="48.55942" lon="-0.20925">
        <ele>360.7</ele>
        <time>2013-08-20T11:44:18Z</time>
      </trkpt>
      <trkpt lat="48.55921" lon="-0.20944">
        <ele>300.3</ele>
        <time>2013-08-20T11:44:49Z</time>
      </trkpt>
      <trkpt lat="48.55874" lon="-0.2104">
        <ele>343</ele>
        <time>2013-08-20T11:45:30Z</time>
      </trkpt>
      <trkpt lat="48.55869" lon="-0.2106">
        <ele>364.6</ele>
        <time>2013-08-20T11:45:47Z</time>
      </trkpt>
      <trkpt lat="48.55831" lon="-0.21092">
        <ele>353.9</ele>
        <time>2013-08-20T11:46:22Z</time>
      </trkpt>
      <trkpt lat="48.55832" lon="-0.21147">
        <ele>357.2</ele>
        <time>2013-08-20T11:46:52Z</time>
      </trkpt>
      <trkpt lat="48.5581" lon="-0.21216">
        <ele>373.2</ele>
        <time>2013-08-20T11:48:10Z</time>
      </trkpt>
      <trkpt lat="48.55796" lon="-0.21284">
        <ele>372.1</ele>
        <time>2013-08-20T11:48:36Z</time>
      </trkpt>
      <trkpt lat="48.55791" lon="-0.21302">
        <ele>373</ele>
        <time>2013-08-20T11:48:57Z</time>
      </trkpt>
      <trkpt lat="48.55762" lon="-0.2131">
        <ele>349.5</ele>
        <time>2013-08-20T11:49:42Z</time>
      </trkpt>
      <trkpt lat="48.55765" lon="-0.2132">
        <ele>356</ele>
        <time>2013-08-20T11:49:58Z</time>
      </trkpt>
      <trkpt lat="48.55774" lon="-0.21355">
        <ele>359.9</ele>
        <time>2013-08-20T11:50:31Z</time>
      </trkpt>
      <trkpt lat="48.55773" lon="-0.21366">
        <ele>361.2</ele>
        <time>2013-08-20T11:50:48Z</time>
      </trkpt>
      <trkpt lat="48.55742" lon="-0.21418">
        <ele>357.3</ele>
        <time>2013-08-20T11:51:22Z</time>
      </trkpt>
      <trkpt lat="48.5568" lon="-0.21482">
        <ele>363.6</ele>
        <time>2013-08-20T11:51:58Z</time>
      </trkpt>
      <trkpt lat="48.5564" lon="-0.21508">
        <ele>350.2</ele>
        <time>2013-08-20T11:52:34Z</time>
      </trkpt>
      <trkpt lat="48.55611" lon="-0.21525">
        <ele>350.3</ele>
        <time>2013-08-20T11:53:05Z</time>
      </trkpt>
      <trkpt lat="48.55594" lon="-0.21471">
        <ele>348.5</ele>
        <time>2013-08-20T11:53:26Z</time>
      </trkpt>
      <trkpt lat="48.55534" lon="-0.21499">
        <ele>368.7</ele>
        <time>2013-08-20T11:53:54Z</time>
      </trkpt>
      <trkpt lat="48.55506" lon="-0.21516">
        <ele>365</ele>
        <time>2013-08-20T11:54:21Z</time>
      </trkpt>
      <trkpt lat="48.55486" lon="-0.215">
        <ele>367.7</ele>
        <time>2013-08-20T11:54:50Z</time>
      </trkpt>
      <trkpt lat="48.55437" lon="-0.21524">
        <ele>367.6</ele>
        <time>2013-08-20T11:55:23Z</time>
      </trkpt>
      <trkpt lat="48.55418" lon="-0.21619">
        <ele>333</ele>
        <time>2013-08-20T11:55:51Z</time>
      </trkpt>
      <trkpt lat="48.55435" lon="-0.21677">
        <ele>336.3</ele>
        <time>2013-08-20T11:56:26Z</time>
      </trkpt>
      <trkpt lat="48.55435" lon="-0.21722">
        <ele>349.2</ele>
        <time>2013-08-20T11:56:49Z</time>
      </trkpt>
      <trkpt lat="48.55425" lon="-0.21772">
        <ele>330.6</ele>
        <time>2013-08-20T11:57:19Z</time>
      </trkpt>
      <trkpt lat="48.5542" lon="-0.21807">
        <ele>323.9</ele>
        <time>2013-08-20T11:57:51Z</time>
      </trkpt>
      <trkpt lat="48.5542" lon="-0.21814">
        <ele>323.6</ele>
        <time>2013-08-20T11:58:53Z</time>
      </trkpt>
      <trkpt lat="48.55441" lon="-0.2184">
        <ele>335.3</ele>
        <time>2013-08-20T11:59:18Z</time>
      </trkpt>
      <trkpt lat="48.55434" lon="-0.21875">
        <ele>338.5</ele>
        <time>2013-08-20T11:59:50Z</time>
      </trkpt>
      <trkpt lat="48.55433" lon="-0.21965">
        <ele>323.9</ele>
        <time>2013-08-20T12:00:27Z</time>
      </trkpt>
      <trkpt lat="48.55435" lon="-0.22008">
        <ele>327.7</ele>
        <time>2013-08-20T12:00:53Z</time>
      </trkpt>
      <trkpt lat="48.5544" lon="-0.22022">
        <ele>326.9</ele>
        <time>2013-08-20T12:01:22Z</time>
      </trkpt>
      <trkpt lat="48.55448" lon="-0.22145">
        <ele>328.6</ele>
        <time>2013-08-20T12:01:49Z</time>
      </trkpt>
      <trkpt lat="48.55441" lon="-0.22206">
        <ele>358.2</ele>
        <time>2013-08-20T12:02:28Z</time>
      </trkpt>
      <trkpt lat="48.55408" lon="-0.22276">
        <ele>306.2</ele>
        <time>2013-08-20T12:02:52Z</time>
      </trkpt>
      <trkpt lat="48.55406" lon="-0.22319">
        <ele>311.8</ele>
        <time>2013-08-20T12:03:27Z</time>
      </trkpt>
      <trkpt lat="48.55379" lon="-0.22361">
        <ele>332.6</ele>
        <time>2013-08-20T12:03:56Z</time>
      </trkpt>
      <trkpt lat="48.5534" lon="-0.22353">
        <ele>346.1</ele>
        <time>2013-08-20T12:04:42Z</time>
      </trkpt>
      <trkpt lat="48.55321" lon="-0.2228">
        <ele>377.6</ele>
        <time>2013-08-20T12:05:43Z</time>
      </trkpt>
      <trkpt lat="48.553" lon="-0.2226">
        <ele>365.9</ele>
        <time>2013-08-20T12:05:59Z</time>
      </trkpt>
      <trkpt lat="48.55209" lon="-0.2229">
        <ele>327.1</ele>
        <time>2013-08-20T12:07:05Z</time>
      </trkpt>
      <trkpt lat="48.55144" lon="-0.22381">
        <ele>328.2</ele>
        <time>2013-08-20T12:08:37Z</time>
      </trkpt>
      <trkpt lat="48.55122" lon="-0.22421">
        <ele>329.2</ele>
        <time>2013-08-20T12:09:21Z</time>
      </trkpt>
      <trkpt lat="48.55087" lon="-0.22481">
        <ele>323.2</ele>
        <time>2013-08-20T12:09:51Z</time>
      </trkpt>
      <trkpt lat="48.5504" lon="-0.22528">
        <ele>292.9</ele>
        <time>2013-08-20T12:10:27Z</time>
      </trkpt>
      <trkpt lat="48.55011" lon="-0.22526">
        <ele>293.3</ele>
        <time>2013-08-20T12:10:50Z</time>
      </trkpt>
      <trkpt lat="48.55008" lon="-0.22554">
        <ele>373.2</ele>
        <time>2013-08-20T12:11:25Z</time>
      </trkpt>
      <trkpt lat="48.54989" lon="-0.22586">
        <ele>335.2</ele>
        <time>2013-08-20T12:11:47Z</time>
      </trkpt>
      <trkpt lat="48.54964" lon="-0.22593">
        <ele>302.6</ele>
        <time>2013-08-20T12:12:52Z</time>
      </trkpt>
      <trkpt lat="48.54845" lon="-0.22656">
        <ele>302.6</ele>
        <time>2013-08-20T12:14:42Z</time>
      </trkpt>
      <trkpt lat="48.54857" lon="-0.22667">
        <ele>283.6</ele>
        <time>2013-08-20T12:14:58Z</time>
      </trkpt>
      <trkpt lat="48.54815" lon="-0.2275">
        <ele>323.6</ele>
        <time>2013-08-20T12:15:39Z</time>
      </trkpt>
      <trkpt lat="48.54804" lon="-0.22749">
        <ele>333.2</ele>
        <time>2013-08-20T12:16:07Z</time>
      </trkpt>
      <trkpt lat="48.54753" lon="-0.22831">
        <ele>315.5</ele>
        <time>2013-08-20T12:17:09Z</time>
      </trkpt>
      <trkpt lat="48.54705" lon="-0.22906">
        <ele>305.5</ele>
        <time>2013-08-20T12:18:29Z</time>
      </trkpt>
      <trkpt lat="48.54679" lon="-0.22937">
        <ele>300.2</ele>
        <time>2013-08-20T12:18:56Z</time>
      </trkpt>
      <trkpt lat="48.54646" lon="-0.22944">
        <ele>308</ele>
        <time>2013-08-20T12:19:21Z</time>
      </trkpt>
      <trkpt lat="48.54667" lon="-0.23003">
        <ele>334</ele>
        <time>2013-08-20T12:19:57Z</time>
      </trkpt>
      <trkpt lat="48.54637" lon="-0.23004">
        <ele>303.3</ele>
        <time>2013-08-20T12:20:22Z</time>
      </trkpt>
      <trkpt lat="48.54602" lon="-0.22988">
        <ele>292.2</ele>
        <time>2013-08-20T12:20:49Z</time>
      </trkpt>
      <trkpt lat="48.54559" lon="-0.23007">
        <ele>264.5</ele>
        <time>2013-08-20T12:21:24Z</time>
      </trkpt>
      <trkpt lat="48.54553" lon="-0.23021">
        <ele>285.9</ele>
        <time>2013-08-20T12:21:48Z</time>
      </trkpt>
      <trkpt lat="48.54565" lon="-0.23097">
        <ele>321.3</ele>
        <time>2013-08-20T12:22:20Z</time>
      </trkpt>
      <trkpt lat="48.54593" lon="-0.23204">
        <ele>331.3</ele>
        <time>2013-08-20T12:23:43Z</time>
      </trkpt>
      <trkpt lat="48.54601" lon="-0.23362">
        <ele>294</ele>
        <time>2013-08-20T12:25:38Z</time>
      </trkpt>
      <trkpt lat="48.5462" lon="-0.23395">
        <ele>296.2</ele>
        <time>2013-08-20T12:26:22Z</time>
      </trkpt>
      <trkpt lat="48.5466" lon="-0.23546">
        <ele>270.2</ele>
        <time>2013-08-20T12:27:42Z</time>
      </trkpt>
      <trkpt lat="48.54673" lon="-0.23582">
        <ele>316.6</ele>
        <time>2013-08-20T12:28:41Z</time>
      </trkpt>
      <trkpt lat="48.54674" lon="-0.23589">
        <ele>315.4</ele>
        <time>2013-08-20T12:28:51Z</time>
      </trkpt>
      <trkpt lat="48.54676" lon="-0.23596">
        <ele>313</ele>
        <time>2013-08-20T12:29:16Z</time>
      </trkpt>
      <trkpt lat="48.5469" lon="-0.23612">
        <ele>296.9</ele>
        <time>2013-08-20T12:32:13Z</time>
      </trkpt>
      <trkpt lat="48.54697" lon="-0.2363">
        <ele>296.8</ele>
        <time>2013-08-20T12:32:52Z</time>
      </trkpt>
      <trkpt lat="48.54688" lon="-0.23616">
        <ele>296.8</ele>
        <time>2013-08-20T12:33:24Z</time>
      </trkpt>
      <trkpt lat="48.54702" lon="-0.236">
        <ele>303.5</ele>
        <time>2013-08-20T12:33:53Z</time>
      </trkpt>
      <trkpt lat="48.54692" lon="-0.23608">
        <ele>276.9</ele>
        <time>2013-08-20T12:34:55Z</time>
      </trkpt>
      <trkpt lat="48.54686" lon="-0.23612">
        <ele>280.3</ele>
        <time>2013-08-20T12:35:27Z</time>
      </trkpt>
      <trkpt lat="48.54694" lon="-0.2361">
        <ele>298.3</ele>
        <time>2013-08-20T12:35:43Z</time>
      </trkpt>
      <trkpt lat="48.54686" lon="-0.2361">
        <ele>285.3</ele>
        <time>2013-08-20T12:36:21Z</time>
      </trkpt>
      <trkpt lat="48.54689" lon="-0.23605">
        <ele>286.2</ele>
        <time>2013-08-20T12:37:44Z</time>
      </trkpt>
      <trkpt lat="48.54692" lon="-0.23611">
        <ele>289.9</ele>
        <time>2013-08-20T12:40:53Z</time>
      </trkpt>
      <trkpt lat="48.54692" lon="-0.2362">
        <ele>293.8</ele>
        <time>2013-08-20T12:41:27Z</time>
      </trkpt>
      <trkpt lat="48.54692" lon="-0.23611">
        <ele>294.4</ele>
        <time>2013-08-20T12:41:44Z</time>
      </trkpt>
      <trkpt lat="48.54708" lon="-0.23616">
        <ele>313.1</ele>
        <time>2013-08-20T12:44:34Z</time>
      </trkpt>
      <trkpt lat="48.54697" lon="-0.23609">
        <ele>297.6</ele>
        <time>2013-08-20T12:45:00Z</time>
      </trkpt>
      <trkpt lat="48.5469" lon="-0.23606">
        <ele>292.8</ele>
        <time>2013-08-20T12:45:25Z</time>
      </trkpt>
      <trkpt lat="48.54676" lon="-0.23613">
        <ele>290.9</ele>
        <time>2013-08-20T12:45:53Z</time>
      </trkpt>
      <trkpt lat="48.54682" lon="-0.23612">
        <ele>290</ele>
        <time>2013-08-20T12:46:27Z</time>
      </trkpt>
      <trkpt lat="48.5469" lon="-0.23617">
        <ele>312.2</ele>
        <time>2013-08-20T12:46:55Z</time>
      </trkpt>
      <trkpt lat="48.54676" lon="-0.2362">
        <ele>312.3</ele>
        <time>2013-08-20T12:48:51Z</time>
      </trkpt>
      <trkpt lat="48.54697" lon="-0.23616">
        <ele>311.3</ele>
        <time>2013-08-20T12:49:25Z</time>
      </trkpt>
      <trkpt lat="48.54693" lon="-0.23622">
        <ele>287.7</ele>
        <time>2013-08-20T12:53:04Z</time>
      </trkpt>
      <trkpt lat="48.54696" lon="-0.23614">
        <ele>296.6</ele>
        <time>2013-08-20T12:53:45Z</time>
      </trkpt>
      <trkpt lat="48.54692" lon="-0.23615">
        <ele>299</ele>
        <time>2013-08-20T13:01:54Z</time>
      </trkpt>
      <trkpt lat="48.54687" lon="-0.23602">
        <ele>284.8</ele>
        <time>2013-08-20T13:03:25Z</time>
      </trkpt>
      <trkpt lat="48.54688" lon="-0.23585">
        <ele>313.3</ele>
        <time>2013-08-20T13:06:41Z</time>
      </trkpt>
      <trkpt lat="48.54707" lon="-0.23613">
        <ele>307.8</ele>
        <time>2013-08-20T13:07:05Z</time>
      </trkpt>
      <trkpt lat="48.54701" lon="-0.23616">
        <ele>316.1</ele>
        <time>2013-08-20T13:11:34Z</time>
      </trkpt>
      <trkpt lat="48.54699" lon="-0.2361">
        <ele>316.3</ele>
        <time>2013-08-20T13:21:55Z</time>
      </trkpt>
      <trkpt lat="48.54693" lon="-0.23607">
        <ele>309.8</ele>
        <time>2013-08-20T13:34:53Z</time>
      </trkpt>
      <trkpt lat="48.54698" lon="-0.23612">
        <ele>309.8</ele>
        <time>2013-08-20T13:35:55Z</time>
      </trkpt>
      <trkpt lat="48.54678" lon="-0.23617">
        <ele>294.7</ele>
        <time>2013-08-20T13:39:47Z</time>
      </trkpt>
      <trkpt lat="48.54703" lon="-0.23605">
        <ele>303</ele>
        <time>2013-08-20T13:40:17Z</time>
      </trkpt>
      <trkpt lat="48.54694" lon="-0.23607">
        <ele>300.7</ele>
        <time>2013-08-20T13:40:46Z</time>
      </trkpt>
      <trkpt lat="48.54675" lon="-0.23587">
        <ele>256.8</ele>
        <time>2013-08-20T13:41:47Z</time>
      </trkpt>
      <trkpt lat="48.54667" lon="-0.23632">
        <ele>257.8</ele>
        <time>2013-08-20T13:42:21Z</time>
      </trkpt>
      <trkpt lat="48.5466" lon="-0.23621">
        <ele>257.8</ele>
        <time>2013-08-20T13:42:49Z</time>
      </trkpt>
      <trkpt lat="48.54671" lon="-0.23583">
        <ele>258.3</ele>
        <time>2013-08-20T13:43:17Z</time>
      </trkpt>
      <trkpt lat="48.5466" lon="-0.2363">
        <ele>258.6</ele>
        <time>2013-08-20T13:43:48Z</time>
      </trkpt>
      <trkpt lat="48.54667" lon="-0.23597">
        <ele>259</ele>
        <time>2013-08-20T13:44:19Z</time>
      </trkpt>
      <trkpt lat="48.54678" lon="-0.23587">
        <ele>259.8</ele>
        <time>2013-08-20T13:44:47Z</time>
      </trkpt>
      <trkpt lat="48.54672" lon="-0.23591">
        <ele>260.3</ele>
        <time>2013-08-20T13:45:20Z</time>
      </trkpt>
      <trkpt lat="48.54662" lon="-0.23627">
        <ele>261.9</ele>
        <time>2013-08-20T13:45:53Z</time>
      </trkpt>
      <trkpt lat="48.54662" lon="-0.23602">
        <ele>260.3</ele>
        <time>2013-08-20T13:46:19Z</time>
      </trkpt>
      <trkpt lat="48.54668" lon="-0.23592">
        <ele>260.6</ele>
        <time>2013-08-20T13:46:50Z</time>
      </trkpt>
      <trkpt lat="48.5466" lon="-0.23616">
        <ele>260.7</ele>
        <time>2013-08-20T13:47:21Z</time>
      </trkpt>
      <trkpt lat="48.54672" lon="-0.23624">
        <ele>260.8</ele>
        <time>2013-08-20T13:47:51Z</time>
      </trkpt>
      <trkpt lat="48.54666" lon="-0.23595">
        <ele>260.8</ele>
        <time>2013-08-20T13:48:17Z</time>
      </trkpt>
      <trkpt lat="48.5466" lon="-0.23607">
        <ele>261.3</ele>
        <time>2013-08-20T13:49:17Z</time>
      </trkpt>
      <trkpt lat="48.54684" lon="-0.23617">
        <ele>291.2</ele>
        <time>2013-08-20T13:49:51Z</time>
      </trkpt>
      <trkpt lat="48.54664" lon="-0.2362">
        <ele>261.8</ele>
        <time>2013-08-20T13:50:23Z</time>
      </trkpt>
      <trkpt lat="48.54688" lon="-0.23613">
        <ele>293.5</ele>
        <time>2013-08-20T13:52:54Z</time>
      </trkpt>
      <trkpt lat="48.54682" lon="-0.23616">
        <ele>287.1</ele>
        <time>2013-08-20T13:53:22Z</time>
      </trkpt>
      <trkpt lat="48.54686" lon="-0.23612">
        <ele>294.1</ele>
        <time>2013-08-20T13:53:55Z</time>
      </trkpt>
      <trkpt lat="48.54712" lon="-0.23626">
        <ele>308.7</ele>
        <time>2013-08-20T13:54:20Z</time>
      </trkpt>
      <trkpt lat="48.54679" lon="-0.23606">
        <ele>301.4</ele>
        <time>2013-08-20T13:54:53Z</time>
      </trkpt>
      <trkpt lat="48.54688" lon="-0.23607">
        <ele>295.2</ele>
        <time>2013-08-20T13:55:23Z</time>
      </trkpt>
      <trkpt lat="48.54688" lon="-0.23619">
        <ele>304</ele>
        <time>2013-08-20T13:56:22Z</time>
      </trkpt>
      <trkpt lat="48.54696" lon="-0.23617">
        <ele>303.6</ele>
        <time>2013-08-20T13:56:53Z</time>
      </trkpt>
      <trkpt lat="48.54706" lon="-0.2361">
        <ele>307.9</ele>
        <time>2013-08-20T13:57:21Z</time>
      </trkpt>
      <trkpt lat="48.54674" lon="-0.2362">
        <ele>294.2</ele>
        <time>2013-08-20T13:59:48Z</time>
      </trkpt>
      <trkpt lat="48.54695" lon="-0.23622">
        <ele>292.9</ele>
        <time>2013-08-20T14:00:49Z</time>
      </trkpt>
      <trkpt lat="48.54684" lon="-0.23604">
        <ele>289.1</ele>
        <time>2013-08-20T14:01:17Z</time>
      </trkpt>
      <trkpt lat="48.54713" lon="-0.23602">
        <ele>306</ele>
        <time>2013-08-20T14:01:49Z</time>
      </trkpt>
      <trkpt lat="48.54692" lon="-0.2362">
        <ele>303.8</ele>
        <time>2013-08-20T14:02:19Z</time>
      </trkpt>
      <trkpt lat="48.54676" lon="-0.23615">
        <ele>339.9</ele>
        <time>2013-08-20T14:02:49Z</time>
      </trkpt>
      <trkpt lat="48.54692" lon="-0.2362">
        <ele>302.1</ele>
        <time>2013-08-20T14:03:19Z</time>
      </trkpt>
      <trkpt lat="48.54684" lon="-0.23609">
        <ele>308.1</ele>
        <time>2013-08-20T14:04:22Z</time>
      </trkpt>
      <trkpt lat="48.5472" lon="-0.23601">
        <ele>301.7</ele>
        <time>2013-08-20T14:04:50Z</time>
      </trkpt>
      <trkpt lat="48.54718" lon="-0.23608">
        <ele>302.2</ele>
        <time>2013-08-20T14:05:21Z</time>
      </trkpt>
      <trkpt lat="48.54697" lon="-0.23629">
        <ele>301</ele>
        <time>2013-08-20T14:06:20Z</time>
      </trkpt>
      <trkpt lat="48.54679" lon="-0.23609">
        <ele>307.4</ele>
        <time>2013-08-20T14:06:47Z</time>
      </trkpt>
      <trkpt lat="48.54668" lon="-0.23599">
        <ele>313.3</ele>
        <time>2013-08-20T14:07:50Z</time>
      </trkpt>
      <trkpt lat="48.54683" lon="-0.23595">
        <ele>306</ele>
        <time>2013-08-20T14:08:17Z</time>
      </trkpt>
      <trkpt lat="48.54676" lon="-0.23602">
        <ele>305.8</ele>
        <time>2013-08-20T14:08:48Z</time>
      </trkpt>
      <trkpt lat="48.54701" lon="-0.23631">
        <ele>298</ele>
        <time>2013-08-20T14:09:48Z</time>
      </trkpt>
      <trkpt lat="48.54707" lon="-0.23674">
        <ele>305.1</ele>
        <time>2013-08-20T14:10:18Z</time>
      </trkpt>
      <trkpt lat="48.54725" lon="-0.23704">
        <ele>305.3</ele>
        <time>2013-08-20T14:10:47Z</time>
      </trkpt>
      <trkpt lat="48.54752" lon="-0.23701">
        <ele>300.6</ele>
        <time>2013-08-20T14:11:18Z</time>
      </trkpt>
      <trkpt lat="48.54742" lon="-0.2372">
        <ele>306.3</ele>
        <time>2013-08-20T14:11:52Z</time>
      </trkpt>
      <trkpt lat="48.5478" lon="-0.23743">
        <ele>305.2</ele>
        <time>2013-08-20T14:12:16Z</time>
      </trkpt>
      <trkpt lat="48.54807" lon="-0.23807">
        <ele>290.7</ele>
        <time>2013-08-20T14:12:48Z</time>
      </trkpt>
      <trkpt lat="48.54839" lon="-0.23832">
        <ele>294.3</ele>
        <time>2013-08-20T14:13:22Z</time>
      </trkpt>
      <trkpt lat="48.54856" lon="-0.23854">
        <ele>289.1</ele>
        <time>2013-08-20T14:13:48Z</time>
      </trkpt>
      <trkpt lat="48.54859" lon="-0.23869">
        <ele>284.6</ele>
        <time>2013-08-20T14:14:18Z</time>
      </trkpt>
      <trkpt lat="48.54811" lon="-0.23911">
        <ele>292.2</ele>
        <time>2013-08-20T14:14:47Z</time>
      </trkpt>
      <trkpt lat="48.54805" lon="-0.23943">
        <ele>289.9</ele>
        <time>2013-08-20T14:15:18Z</time>
      </trkpt>
      <trkpt lat="48.54835" lon="-0.23916">
        <ele>290.7</ele>
        <time>2013-08-20T14:15:49Z</time>
      </trkpt>
      <trkpt lat="48.54774" lon="-0.23944">
        <ele>290.1</ele>
        <time>2013-08-20T14:16:18Z</time>
      </trkpt>
      <trkpt lat="48.54719" lon="-0.2397">
        <ele>289.7</ele>
        <time>2013-08-20T14:16:55Z</time>
      </trkpt>
      <trkpt lat="48.54728" lon="-0.23953">
        <ele>287.4</ele>
        <time>2013-08-20T14:17:20Z</time>
      </trkpt>
      <trkpt lat="48.54704" lon="-0.24002">
        <ele>287.3</ele>
        <time>2013-08-20T14:17:54Z</time>
      </trkpt>
      <trkpt lat="48.5467" lon="-0.24019">
        <ele>287.2</ele>
        <time>2013-08-20T14:18:23Z</time>
      </trkpt>
      <trkpt lat="48.54636" lon="-0.2404">
        <ele>287.3</ele>
        <time>2013-08-20T14:18:52Z</time>
      </trkpt>
      <trkpt lat="48.54645" lon="-0.24057">
        <ele>287.6</ele>
        <time>2013-08-20T14:19:24Z</time>
      </trkpt>
      <trkpt lat="48.54591" lon="-0.24085">
        <ele>287.5</ele>
        <time>2013-08-20T14:19:50Z</time>
      </trkpt>
      <trkpt lat="48.54515" lon="-0.24089">
        <ele>312.6</ele>
        <time>2013-08-20T14:20:23Z</time>
      </trkpt>
      <trkpt lat="48.5451" lon="-0.2408">
        <ele>313.9</ele>
        <time>2013-08-20T14:20:49Z</time>
      </trkpt>
      <trkpt lat="48.54447" lon="-0.24102">
        <ele>305.1</ele>
        <time>2013-08-20T14:21:18Z</time>
      </trkpt>
      <trkpt lat="48.54444" lon="-0.24132">
        <ele>298.5</ele>
        <time>2013-08-20T14:21:47Z</time>
      </trkpt>
      <trkpt lat="48.54426" lon="-0.24184">
        <ele>315.3</ele>
        <time>2013-08-20T14:22:16Z</time>
      </trkpt>
      <trkpt lat="48.54472" lon="-0.24215">
        <ele>311.6</ele>
        <time>2013-08-20T14:22:49Z</time>
      </trkpt>
      <trkpt lat="48.54448" lon="-0.24273">
        <ele>304.5</ele>
        <time>2013-08-20T14:23:17Z</time>
      </trkpt>
      <trkpt lat="48.54431" lon="-0.24329">
        <ele>308.7</ele>
        <time>2013-08-20T14:23:47Z</time>
      </trkpt>
      <trkpt lat="48.54438" lon="-0.2438">
        <ele>317</ele>
        <time>2013-08-20T14:24:17Z</time>
      </trkpt>
      <trkpt lat="48.54466" lon="-0.24426">
        <ele>273.1</ele>
        <time>2013-08-20T14:24:47Z</time>
      </trkpt>
      <trkpt lat="48.54452" lon="-0.24462">
        <ele>294.5</ele>
        <time>2013-08-20T14:25:17Z</time>
      </trkpt>
      <trkpt lat="48.54477" lon="-0.24503">
        <ele>296.2</ele>
        <time>2013-08-20T14:25:47Z</time>
      </trkpt>
      <trkpt lat="48.54452" lon="-0.24462">
        <ele>301</ele>
        <time>2013-08-20T14:26:17Z</time>
      </trkpt>
      <trkpt lat="48.54448" lon="-0.24457">
        <ele>292.8</ele>
        <time>2013-08-20T14:26:46Z</time>
      </trkpt>
      <trkpt lat="48.54452" lon="-0.24456">
        <ele>300.3</ele>
        <time>2013-08-20T14:27:17Z</time>
      </trkpt>
      <trkpt lat="48.54482" lon="-0.24445">
        <ele>304.1</ele>
        <time>2013-08-20T14:27:48Z</time>
      </trkpt>
      <trkpt lat="48.54464" lon="-0.24453">
        <ele>305.6</ele>
        <time>2013-08-20T14:28:50Z</time>
      </trkpt>
      <trkpt lat="48.54437" lon="-0.24472">
        <ele>310.1</ele>
        <time>2013-08-20T14:29:16Z</time>
      </trkpt>
      <trkpt lat="48.54442" lon="-0.24434">
        <ele>306.3</ele>
        <time>2013-08-20T14:29:46Z</time>
      </trkpt>
      <trkpt lat="48.54395" lon="-0.24425">
        <ele>305.8</ele>
        <time>2013-08-20T14:30:16Z</time>
      </trkpt>
      <trkpt lat="48.54347" lon="-0.24425">
        <ele>308.4</ele>
        <time>2013-08-20T14:30:48Z</time>
      </trkpt>
      <trkpt lat="48.54326" lon="-0.24387">
        <ele>311.1</ele>
        <time>2013-08-20T14:31:17Z</time>
      </trkpt>
      <trkpt lat="48.54317" lon="-0.24353">
        <ele>304.8</ele>
        <time>2013-08-20T14:31:47Z</time>
      </trkpt>
      <trkpt lat="48.54263" lon="-0.24336">
        <ele>305</ele>
        <time>2013-08-20T14:32:18Z</time>
      </trkpt>
      <trkpt lat="48.54237" lon="-0.24324">
        <ele>306.6</ele>
        <time>2013-08-20T14:32:48Z</time>
      </trkpt>
      <trkpt lat="48.5424" lon="-0.24271">
        <ele>297.6</ele>
        <time>2013-08-20T14:33:17Z</time>
      </trkpt>
      <trkpt lat="48.54163" lon="-0.24229">
        <ele>312.2</ele>
        <time>2013-08-20T14:33:47Z</time>
      </trkpt>
      <trkpt lat="48.54146" lon="-0.24211">
        <ele>303.7</ele>
        <time>2013-08-20T14:34:17Z</time>
      </trkpt>
      <trkpt lat="48.54095" lon="-0.24196">
        <ele>294.4</ele>
        <time>2013-08-20T14:34:45Z</time>
      </trkpt>
      <trkpt lat="48.54077" lon="-0.2414">
        <ele>310.8</ele>
        <time>2013-08-20T14:35:17Z</time>
      </trkpt>
      <trkpt lat="48.54068" lon="-0.2415">
        <ele>281.7</ele>
        <time>2013-08-20T14:35:45Z</time>
      </trkpt>
      <trkpt lat="48.54014" lon="-0.24083">
        <ele>291.6</ele>
        <time>2013-08-20T14:36:16Z</time>
      </trkpt>
      <trkpt lat="48.54002" lon="-0.24076">
        <ele>286.4</ele>
        <time>2013-08-20T14:36:47Z</time>
      </trkpt>
      <trkpt lat="48.53974" lon="-0.24136">
        <ele>286.9</ele>
        <time>2013-08-20T14:37:16Z</time>
      </trkpt>
      <trkpt lat="48.53962" lon="-0.24178">
        <ele>286.3</ele>
        <time>2013-08-20T14:37:46Z</time>
      </trkpt>
      <trkpt lat="48.5394" lon="-0.24233">
        <ele>278.6</ele>
        <time>2013-08-20T14:38:17Z</time>
      </trkpt>
      <trkpt lat="48.53936" lon="-0.2428">
        <ele>291.6</ele>
        <time>2013-08-20T14:38:47Z</time>
      </trkpt>
      <trkpt lat="48.53915" lon="-0.24332">
        <ele>300.6</ele>
        <time>2013-08-20T14:39:16Z</time>
      </trkpt>
      <trkpt lat="48.53898" lon="-0.24375">
        <ele>279.4</ele>
        <time>2013-08-20T14:39:46Z</time>
      </trkpt>
      <trkpt lat="48.53873" lon="-0.2441">
        <ele>286.7</ele>
        <time>2013-08-20T14:40:16Z</time>
      </trkpt>
      <trkpt lat="48.53867" lon="-0.24458">
        <ele>303.4</ele>
        <time>2013-08-20T14:40:47Z</time>
      </trkpt>
      <trkpt lat="48.53851" lon="-0.24516">
        <ele>294.8</ele>
        <time>2013-08-20T14:41:16Z</time>
      </trkpt>
      <trkpt lat="48.53824" lon="-0.24579">
        <ele>289.6</ele>
        <time>2013-08-20T14:41:47Z</time>
      </trkpt>
      <trkpt lat="48.53804" lon="-0.24651">
        <ele>259.9</ele>
        <time>2013-08-20T14:42:16Z</time>
      </trkpt>
      <trkpt lat="48.53787" lon="-0.2469">
        <ele>289.8</ele>
        <time>2013-08-20T14:42:46Z</time>
      </trkpt>
      <trkpt lat="48.53762" lon="-0.24743">
        <ele>278.4</ele>
        <time>2013-08-20T14:43:17Z</time>
      </trkpt>
      <trkpt lat="48.53738" lon="-0.2478">
        <ele>289.9</ele>
        <time>2013-08-20T14:43:47Z</time>
      </trkpt>
      <trkpt lat="48.53719" lon="-0.24834">
        <ele>290.8</ele>
        <time>2013-08-20T14:44:17Z</time>
      </trkpt>
      <trkpt lat="48.5368" lon="-0.24879">
        <ele>269.5</ele>
        <time>2013-08-20T14:44:47Z</time>
      </trkpt>
      <trkpt lat="48.53663" lon="-0.24917">
        <ele>268.9</ele>
        <time>2013-08-20T14:45:17Z</time>
      </trkpt>
      <trkpt lat="48.53656" lon="-0.24957">
        <ele>254.7</ele>
        <time>2013-08-20T14:45:47Z</time>
      </trkpt>
      <trkpt lat="48.53633" lon="-0.25003">
        <ele>279.4</ele>
        <time>2013-08-20T14:46:16Z</time>
      </trkpt>
      <trkpt lat="48.53622" lon="-0.25014">
        <ele>256.6</ele>
        <time>2013-08-20T14:46:46Z</time>
      </trkpt>
      <trkpt lat="48.53636" lon="-0.25011">
        <ele>264.1</ele>
        <time>2013-08-20T14:47:47Z</time>
      </trkpt>
      <trkpt lat="48.53626" lon="-0.25011">
        <ele>263.6</ele>
        <time>2013-08-20T14:48:16Z</time>
      </trkpt>
      <trkpt lat="48.53633" lon="-0.24991">
        <ele>289.2</ele>
        <time>2013-08-20T14:49:16Z</time>
      </trkpt>
      <trkpt lat="48.53645" lon="-0.25002">
        <ele>299.9</ele>
        <time>2013-08-20T14:49:46Z</time>
      </trkpt>
      <trkpt lat="48.53631" lon="-0.25009">
        <ele>280.1</ele>
        <time>2013-08-20T14:50:16Z</time>
      </trkpt>
      <trkpt lat="48.5364" lon="-0.24993">
        <ele>288.5</ele>
        <time>2013-08-20T14:50:49Z</time>
      </trkpt>
      <trkpt lat="48.53636" lon="-0.24999">
        <ele>293.9</ele>
        <time>2013-08-20T14:51:18Z</time>
      </trkpt>
      <trkpt lat="48.53645" lon="-0.24988">
        <ele>309.4</ele>
        <time>2013-08-20T14:52:17Z</time>
      </trkpt>
      <trkpt lat="48.5363" lon="-0.24999">
        <ele>280.4</ele>
        <time>2013-08-20T14:52:47Z</time>
      </trkpt>
      <trkpt lat="48.53623" lon="-0.25008">
        <ele>280</ele>
        <time>2013-08-20T14:53:17Z</time>
      </trkpt>
      <trkpt lat="48.53638" lon="-0.24989">
        <ele>315.2</ele>
        <time>2013-08-20T14:53:47Z</time>
      </trkpt>
      <trkpt lat="48.5365" lon="-0.25038">
        <ele>307.2</ele>
        <time>2013-08-20T14:54:21Z</time>
      </trkpt>
      <trkpt lat="48.53668" lon="-0.25071">
        <ele>285.7</ele>
        <time>2013-08-20T14:54:48Z</time>
      </trkpt>
      <trkpt lat="48.53723" lon="-0.25092">
        <ele>294.1</ele>
        <time>2013-08-20T14:55:19Z</time>
      </trkpt>
      <trkpt lat="48.53726" lon="-0.25149">
        <ele>290.2</ele>
        <time>2013-08-20T14:55:48Z</time>
      </trkpt>
      <trkpt lat="48.53722" lon="-0.25204">
        <ele>280.7</ele>
        <time>2013-08-20T14:56:18Z</time>
      </trkpt>
      <trkpt lat="48.53737" lon="-0.25255">
        <ele>300.3</ele>
        <time>2013-08-20T14:56:48Z</time>
      </trkpt>
      <trkpt lat="48.5377" lon="-0.25286">
        <ele>304.9</ele>
        <time>2013-08-20T14:57:20Z</time>
      </trkpt>
      <trkpt lat="48.5376" lon="-0.25349">
        <ele>303.8</ele>
        <time>2013-08-20T14:57:49Z</time>
      </trkpt>
      <trkpt lat="48.53782" lon="-0.25394">
        <ele>261.6</ele>
        <time>2013-08-20T14:58:17Z</time>
      </trkpt>
      <trkpt lat="48.53786" lon="-0.25438">
        <ele>285.7</ele>
        <time>2013-08-20T14:58:47Z</time>
      </trkpt>
      <trkpt lat="48.53777" lon="-0.255">
        <ele>264.4</ele>
        <time>2013-08-20T14:59:18Z</time>
      </trkpt>
      <trkpt lat="48.53818" lon="-0.25512">
        <ele>297.2</ele>
        <time>2013-08-20T14:59:49Z</time>
      </trkpt>
      <trkpt lat="48.53797" lon="-0.25592">
        <ele>299.2</ele>
        <time>2013-08-20T15:00:17Z</time>
      </trkpt>
      <trkpt lat="48.5383" lon="-0.25639">
        <ele>298.4</ele>
        <time>2013-08-20T15:00:52Z</time>
      </trkpt>
      <trkpt lat="48.53829" lon="-0.25687">
        <ele>299</ele>
        <time>2013-08-20T15:01:16Z</time>
      </trkpt>
      <trkpt lat="48.53856" lon="-0.25738">
        <ele>290.8</ele>
        <time>2013-08-20T15:01:49Z</time>
      </trkpt>
      <trkpt lat="48.53828" lon="-0.25814">
        <ele>284.8</ele>
        <time>2013-08-20T15:02:17Z</time>
      </trkpt>
      <trkpt lat="48.53856" lon="-0.25834">
        <ele>296.3</ele>
        <time>2013-08-20T15:02:48Z</time>
      </trkpt>
      <trkpt lat="48.53862" lon="-0.25895">
        <ele>296.6</ele>
        <time>2013-08-20T15:03:17Z</time>
      </trkpt>
      <trkpt lat="48.53868" lon="-0.25931">
        <ele>296.5</ele>
        <time>2013-08-20T15:03:47Z</time>
      </trkpt>
      <trkpt lat="48.53899" lon="-0.25992">
        <ele>287.5</ele>
        <time>2013-08-20T15:04:18Z</time>
      </trkpt>
      <trkpt lat="48.53859" lon="-0.26085">
        <ele>238.1</ele>
        <time>2013-08-20T15:04:47Z</time>
      </trkpt>
      <trkpt lat="48.5388" lon="-0.26114">
        <ele>278.5</ele>
        <time>2013-08-20T15:05:16Z</time>
      </trkpt>
      <trkpt lat="48.539" lon="-0.26149">
        <ele>317.8</ele>
        <time>2013-08-20T15:05:49Z</time>
      </trkpt>
      <trkpt lat="48.53875" lon="-0.26224">
        <ele>293.8</ele>
        <time>2013-08-20T15:06:18Z</time>
      </trkpt>
      <trkpt lat="48.53871" lon="-0.26281">
        <ele>274.6</ele>
        <time>2013-08-20T15:06:48Z</time>
      </trkpt>
      <trkpt lat="48.53906" lon="-0.26324">
        <ele>287.3</ele>
        <time>2013-08-20T15:07:20Z</time>
      </trkpt>
      <trkpt lat="48.5391" lon="-0.26355">
        <ele>295.9</ele>
        <time>2013-08-20T15:07:50Z</time>
      </trkpt>
      <trkpt lat="48.539" lon="-0.26402">
        <ele>265.3</ele>
        <time>2013-08-20T15:08:17Z</time>
      </trkpt>
      <trkpt lat="48.53911" lon="-0.26408">
        <ele>286.6</ele>
        <time>2013-08-20T15:08:47Z</time>
      </trkpt>
      <trkpt lat="48.53903" lon="-0.26421">
        <ele>285.2</ele>
        <time>2013-08-20T15:09:46Z</time>
      </trkpt>
      <trkpt lat="48.5392" lon="-0.26442">
        <ele>269.1</ele>
        <time>2013-08-20T15:10:16Z</time>
      </trkpt>
      <trkpt lat="48.53912" lon="-0.26445">
        <ele>281.8</ele>
        <time>2013-08-20T15:10:46Z</time>
      </trkpt>
      <trkpt lat="48.53926" lon="-0.26455">
        <ele>282.2</ele>
        <time>2013-08-20T15:11:18Z</time>
      </trkpt>
      <trkpt lat="48.53917" lon="-0.26475">
        <ele>286.8</ele>
        <time>2013-08-20T15:11:46Z</time>
      </trkpt>
      <trkpt lat="48.53915" lon="-0.26488">
        <ele>257.5</ele>
        <time>2013-08-20T15:12:45Z</time>
      </trkpt>
      <trkpt lat="48.53898" lon="-0.26492">
        <ele>267.9</ele>
        <time>2013-08-20T15:13:17Z</time>
      </trkpt>
      <trkpt lat="48.53919" lon="-0.2648">
        <ele>284.3</ele>
        <time>2013-08-20T15:13:47Z</time>
      </trkpt>
      <trkpt lat="48.53929" lon="-0.2649">
        <ele>283.8</ele>
        <time>2013-08-20T15:14:19Z</time>
      </trkpt>
      <trkpt lat="48.53931" lon="-0.26532">
        <ele>292.4</ele>
        <time>2013-08-20T15:14:47Z</time>
      </trkpt>
      <trkpt lat="48.53963" lon="-0.26562">
        <ele>294</ele>
        <time>2013-08-20T15:15:19Z</time>
      </trkpt>
      <trkpt lat="48.53962" lon="-0.26595">
        <ele>285.8</ele>
        <time>2013-08-20T15:15:49Z</time>
      </trkpt>
      <trkpt lat="48.53957" lon="-0.26657">
        <ele>294.2</ele>
        <time>2013-08-20T15:16:17Z</time>
      </trkpt>
      <trkpt lat="48.53975" lon="-0.2665">
        <ele>294.6</ele>
        <time>2013-08-20T15:16:48Z</time>
      </trkpt>
      <trkpt lat="48.5396" lon="-0.26709">
        <ele>308.7</ele>
        <time>2013-08-20T15:17:16Z</time>
      </trkpt>
      <trkpt lat="48.53973" lon="-0.26739">
        <ele>283.7</ele>
        <time>2013-08-20T15:17:46Z</time>
      </trkpt>
      <trkpt lat="48.53995" lon="-0.26783">
        <ele>311.6</ele>
        <time>2013-08-20T15:18:17Z</time>
      </trkpt>
      <trkpt lat="48.54001" lon="-0.26791">
        <ele>326.1</ele>
        <time>2013-08-20T15:18:48Z</time>
      </trkpt>
      <trkpt lat="48.53961" lon="-0.26807">
        <ele>223.2</ele>
        <time>2013-08-20T15:19:18Z</time>
      </trkpt>
      <trkpt lat="48.5396" lon="-0.26787">
        <ele>253.7</ele>
        <time>2013-08-20T15:19:51Z</time>
      </trkpt>
      <trkpt lat="48.54" lon="-0.26787">
        <ele>385.8</ele>
        <time>2013-08-20T15:20:19Z</time>
      </trkpt>
      <trkpt lat="48.53986" lon="-0.26817">
        <ele>321.9</ele>
        <time>2013-08-20T15:20:49Z</time>
      </trkpt>
      <trkpt lat="48.53984" lon="-0.26896">
        <ele>268.3</ele>
        <time>2013-08-20T15:21:17Z</time>
      </trkpt>
      <trkpt lat="48.53999" lon="-0.26947">
        <ele>289.1</ele>
        <time>2013-08-20T15:21:47Z</time>
      </trkpt>
      <trkpt lat="48.53996" lon="-0.26985">
        <ele>296.8</ele>
        <time>2013-08-20T15:22:17Z</time>
      </trkpt>
      <trkpt lat="48.53986" lon="-0.27043">
        <ele>283.5</ele>
        <time>2013-08-20T15:22:46Z</time>
      </trkpt>
      <trkpt lat="48.53995" lon="-0.27076">
        <ele>306</ele>
        <time>2013-08-20T15:23:17Z</time>
      </trkpt>
      <trkpt lat="48.53978" lon="-0.2711">
        <ele>270.7</ele>
        <time>2013-08-20T15:23:47Z</time>
      </trkpt>
      <trkpt lat="48.53997" lon="-0.271">
        <ele>269.7</ele>
        <time>2013-08-20T15:24:17Z</time>
      </trkpt>
      <trkpt lat="48.54" lon="-0.27132">
        <ele>281.3</ele>
        <time>2013-08-20T15:24:47Z</time>
      </trkpt>
      <trkpt lat="48.54036" lon="-0.27089">
        <ele>285.8</ele>
        <time>2013-08-20T15:25:18Z</time>
      </trkpt>
      <trkpt lat="48.54007" lon="-0.27121">
        <ele>281.6</ele>
        <time>2013-08-20T15:25:47Z</time>
      </trkpt>
      <trkpt lat="48.54023" lon="-0.27112">
        <ele>308.5</ele>
        <time>2013-08-20T15:26:21Z</time>
      </trkpt>
      <trkpt lat="48.54028" lon="-0.27122">
        <ele>293.9</ele>
        <time>2013-08-20T15:26:46Z</time>
      </trkpt>
      <trkpt lat="48.54043" lon="-0.27163">
        <ele>297.1</ele>
        <time>2013-08-20T15:27:16Z</time>
      </trkpt>
      <trkpt lat="48.54081" lon="-0.27191">
        <ele>295.3</ele>
        <time>2013-08-20T15:27:46Z</time>
      </trkpt>
      <trkpt lat="48.54109" lon="-0.27227">
        <ele>294.6</ele>
        <time>2013-08-20T15:28:16Z</time>
      </trkpt>
      <trkpt lat="48.54116" lon="-0.27258">
        <ele>293.4</ele>
        <time>2013-08-20T15:28:47Z</time>
      </trkpt>
      <trkpt lat="48.54144" lon="-0.27269">
        <ele>303.7</ele>
        <time>2013-08-20T15:29:16Z</time>
      </trkpt>
      <trkpt lat="48.54177" lon="-0.273">
        <ele>291.3</ele>
        <time>2013-08-20T15:29:47Z</time>
      </trkpt>
      <trkpt lat="48.54204" lon="-0.27328">
        <ele>291.1</ele>
        <time>2013-08-20T15:30:18Z</time>
      </trkpt>
      <trkpt lat="48.54251" lon="-0.27349">
        <ele>282.2</ele>
        <time>2013-08-20T15:30:48Z</time>
      </trkpt>
      <trkpt lat="48.54242" lon="-0.27388">
        <ele>290.2</ele>
        <time>2013-08-20T15:31:16Z</time>
      </trkpt>
      <trkpt lat="48.54244" lon="-0.27446">
        <ele>296.1</ele>
        <time>2013-08-20T15:31:46Z</time>
      </trkpt>
      <trkpt lat="48.54246" lon="-0.27488">
        <ele>296.5</ele>
        <time>2013-08-20T15:32:16Z</time>
      </trkpt>
      <trkpt lat="48.54225" lon="-0.27536">
        <ele>283</ele>
        <time>2013-08-20T15:32:46Z</time>
      </trkpt>
      <trkpt lat="48.54223" lon="-0.27564">
        <ele>292.6</ele>
        <time>2013-08-20T15:33:15Z</time>
      </trkpt>
      <trkpt lat="48.54242" lon="-0.27542">
        <ele>300</ele>
        <time>2013-08-20T15:33:46Z</time>
      </trkpt>
      <trkpt lat="48.54194" lon="-0.27587">
        <ele>278.5</ele>
        <time>2013-08-20T15:34:16Z</time>
      </trkpt>
      <trkpt lat="48.54199" lon="-0.27616">
        <ele>302.8</ele>
        <time>2013-08-20T15:34:46Z</time>
      </trkpt>
      <trkpt lat="48.54165" lon="-0.27672">
        <ele>294.6</ele>
        <time>2013-08-20T15:35:17Z</time>
      </trkpt>
      <trkpt lat="48.54159" lon="-0.27717">
        <ele>320.6</ele>
        <time>2013-08-20T15:35:46Z</time>
      </trkpt>
      <trkpt lat="48.54116" lon="-0.27787">
        <ele>306.2</ele>
        <time>2013-08-20T15:36:17Z</time>
      </trkpt>
      <trkpt lat="48.54123" lon="-0.27844">
        <ele>320.5</ele>
        <time>2013-08-20T15:36:47Z</time>
      </trkpt>
      <trkpt lat="48.54095" lon="-0.27887">
        <ele>301.4</ele>
        <time>2013-08-20T15:37:17Z</time>
      </trkpt>
      <trkpt lat="48.54083" lon="-0.27937">
        <ele>289.9</ele>
        <time>2013-08-20T15:37:47Z</time>
      </trkpt>
      <trkpt lat="48.54066" lon="-0.27946">
        <ele>292.1</ele>
        <time>2013-08-20T15:38:16Z</time>
      </trkpt>
      <trkpt lat="48.54039" lon="-0.2796">
        <ele>293.5</ele>
        <time>2013-08-20T15:38:46Z</time>
      </trkpt>
      <trkpt lat="48.54004" lon="-0.2795">
        <ele>296</ele>
        <time>2013-08-20T15:39:16Z</time>
      </trkpt>
      <trkpt lat="48.53978" lon="-0.27958">
        <ele>289.7</ele>
        <time>2013-08-20T15:40:16Z</time>
      </trkpt>
      <trkpt lat="48.53927" lon="-0.27977">
        <ele>282.1</ele>
        <time>2013-08-20T15:40:47Z</time>
      </trkpt>
      <trkpt lat="48.53904" lon="-0.28003">
        <ele>297.1</ele>
        <time>2013-08-20T15:41:17Z</time>
      </trkpt>
      <trkpt lat="48.53895" lon="-0.27996">
        <ele>307.2</ele>
        <time>2013-08-20T15:41:46Z</time>
      </trkpt>
      <trkpt lat="48.53878" lon="-0.28027">
        <ele>329.5</ele>
        <time>2013-08-20T15:42:17Z</time>
      </trkpt>
      <trkpt lat="48.53844" lon="-0.28073">
        <ele>316.7</ele>
        <time>2013-08-20T15:42:46Z</time>
      </trkpt>
      <trkpt lat="48.53811" lon="-0.28107">
        <ele>294.6</ele>
        <time>2013-08-20T15:43:17Z</time>
      </trkpt>
      <trkpt lat="48.53788" lon="-0.28125">
        <ele>307.5</ele>
        <time>2013-08-20T15:43:46Z</time>
      </trkpt>
      <trkpt lat="48.53761" lon="-0.28151">
        <ele>311.6</ele>
        <time>2013-08-20T15:44:17Z</time>
      </trkpt>
      <trkpt lat="48.53748" lon="-0.28181">
        <ele>294.9</ele>
        <time>2013-08-20T15:44:48Z</time>
      </trkpt>
      <trkpt lat="48.53741" lon="-0.28215">
        <ele>308.9</ele>
        <time>2013-08-20T15:45:16Z</time>
      </trkpt>
      <trkpt lat="48.53736" lon="-0.28289">
        <ele>296.2</ele>
        <time>2013-08-20T15:45:46Z</time>
      </trkpt>
      <trkpt lat="48.53753" lon="-0.28344">
        <ele>303.2</ele>
        <time>2013-08-20T15:46:17Z</time>
      </trkpt>
      <trkpt lat="48.53735" lon="-0.28391">
        <ele>292.2</ele>
        <time>2013-08-20T15:46:46Z</time>
      </trkpt>
      <trkpt lat="48.53735" lon="-0.28442">
        <ele>292.4</ele>
        <time>2013-08-20T15:47:17Z</time>
      </trkpt>
      <trkpt lat="48.53671" lon="-0.2848">
        <ele>325.5</ele>
        <time>2013-08-20T15:47:48Z</time>
      </trkpt>
      <trkpt lat="48.53698" lon="-0.28539">
        <ele>291.4</ele>
        <time>2013-08-20T15:48:47Z</time>
      </trkpt>
      <trkpt lat="48.53673" lon="-0.28566">
        <ele>294.4</ele>
        <time>2013-08-20T15:49:15Z</time>
      </trkpt>
      <trkpt lat="48.53638" lon="-0.28597">
        <ele>298.3</ele>
        <time>2013-08-20T15:49:47Z</time>
      </trkpt>
      <trkpt lat="48.53619" lon="-0.28654">
        <ele>272.8</ele>
        <time>2013-08-20T15:50:17Z</time>
      </trkpt>
      <trkpt lat="48.53632" lon="-0.28684">
        <ele>287.2</ele>
        <time>2013-08-20T15:50:47Z</time>
      </trkpt>
      <trkpt lat="48.53628" lon="-0.28733">
        <ele>279.4</ele>
        <time>2013-08-20T15:51:16Z</time>
      </trkpt>
      <trkpt lat="48.53588" lon="-0.28739">
        <ele>282.9</ele>
        <time>2013-08-20T15:51:47Z</time>
      </trkpt>
      <trkpt lat="48.53566" lon="-0.28775">
        <ele>289.8</ele>
        <time>2013-08-20T15:52:16Z</time>
      </trkpt>
      <trkpt lat="48.53531" lon="-0.28797">
        <ele>282.9</ele>
        <time>2013-08-20T15:52:46Z</time>
      </trkpt>
      <trkpt lat="48.53511" lon="-0.28825">
        <ele>287.4</ele>
        <time>2013-08-20T15:53:16Z</time>
      </trkpt>
      <trkpt lat="48.53486" lon="-0.28838">
        <ele>282.5</ele>
        <time>2013-08-20T15:53:45Z</time>
      </trkpt>
      <trkpt lat="48.53437" lon="-0.28839">
        <ele>267.5</ele>
        <time>2013-08-20T15:54:16Z</time>
      </trkpt>
      <trkpt lat="48.53416" lon="-0.28836">
        <ele>259.3</ele>
        <time>2013-08-20T15:54:47Z</time>
      </trkpt>
      <trkpt lat="48.53413" lon="-0.28796">
        <ele>256.6</ele>
        <time>2013-08-20T15:55:16Z</time>
      </trkpt>
      <trkpt lat="48.53373" lon="-0.28799">
        <ele>263.7</ele>
        <time>2013-08-20T15:56:17Z</time>
      </trkpt>
      <trkpt lat="48.53341" lon="-0.288">
        <ele>264.3</ele>
        <time>2013-08-20T15:57:15Z</time>
      </trkpt>
      <trkpt lat="48.53333" lon="-0.28828">
        <ele>286.4</ele>
        <time>2013-08-20T15:57:47Z</time>
      </trkpt>
      <trkpt lat="48.53318" lon="-0.28863">
        <ele>268.3</ele>
        <time>2013-08-20T15:58:17Z</time>
      </trkpt>
      <trkpt lat="48.53313" lon="-0.28895">
        <ele>290.8</ele>
        <time>2013-08-20T15:58:46Z</time>
      </trkpt>
      <trkpt lat="48.5331" lon="-0.28938">
        <ele>279.2</ele>
        <time>2013-08-20T15:59:17Z</time>
      </trkpt>
      <trkpt lat="48.53294" lon="-0.28984">
        <ele>296.5</ele>
        <time>2013-08-20T15:59:48Z</time>
      </trkpt>
      <trkpt lat="48.53308" lon="-0.29034">
        <ele>300.5</ele>
        <time>2013-08-20T16:00:17Z</time>
      </trkpt>
      <trkpt lat="48.53283" lon="-0.29102">
        <ele>297.2</ele>
        <time>2013-08-20T16:00:47Z</time>
      </trkpt>
      <trkpt lat="48.5328" lon="-0.29129">
        <ele>292.1</ele>
        <time>2013-08-20T16:01:16Z</time>
      </trkpt>
      <trkpt lat="48.53264" lon="-0.29157">
        <ele>297.2</ele>
        <time>2013-08-20T16:01:46Z</time>
      </trkpt>
      <trkpt lat="48.53278" lon="-0.29204">
        <ele>297.2</ele>
        <time>2013-08-20T16:02:17Z</time>
      </trkpt>
      <trkpt lat="48.53307" lon="-0.2926">
        <ele>317</ele>
        <time>2013-08-20T16:02:47Z</time>
      </trkpt>
      <trkpt lat="48.53294" lon="-0.29279">
        <ele>307.1</ele>
        <time>2013-08-20T16:03:17Z</time>
      </trkpt>
      <trkpt lat="48.53311" lon="-0.29328">
        <ele>295.2</ele>
        <time>2013-08-20T16:03:47Z</time>
      </trkpt>
      <trkpt lat="48.53309" lon="-0.29366">
        <ele>294.7</ele>
        <time>2013-08-20T16:04:17Z</time>
      </trkpt>
      <trkpt lat="48.53311" lon="-0.29401">
        <ele>290.6</ele>
        <time>2013-08-20T16:04:46Z</time>
      </trkpt>
      <trkpt lat="48.53293" lon="-0.29452">
        <ele>287.3</ele>
        <time>2013-08-20T16:05:18Z</time>
      </trkpt>
      <trkpt lat="48.53288" lon="-0.29509">
        <ele>292.7</ele>
        <time>2013-08-20T16:05:47Z</time>
      </trkpt>
      <trkpt lat="48.53284" lon="-0.29557">
        <ele>309</ele>
        <time>2013-08-20T16:06:16Z</time>
      </trkpt>
      <trkpt lat="48.53268" lon="-0.29589">
        <ele>323</ele>
        <time>2013-08-20T16:06:47Z</time>
      </trkpt>
      <trkpt lat="48.53282" lon="-0.29671">
        <ele>304.2</ele>
        <time>2013-08-20T16:07:18Z</time>
      </trkpt>
      <trkpt lat="48.53299" lon="-0.29726">
        <ele>320.9</ele>
        <time>2013-08-20T16:07:47Z</time>
      </trkpt>
      <trkpt lat="48.53305" lon="-0.29769">
        <ele>335.6</ele>
        <time>2013-08-20T16:08:17Z</time>
      </trkpt>
      <trkpt lat="48.533" lon="-0.2984">
        <ele>302.4</ele>
        <time>2013-08-20T16:08:48Z</time>
      </trkpt>
      <trkpt lat="48.53327" lon="-0.2988">
        <ele>323</ele>
        <time>2013-08-20T16:09:16Z</time>
      </trkpt>
      <trkpt lat="48.53314" lon="-0.29868">
        <ele>316.6</ele>
        <time>2013-08-20T16:09:48Z</time>
      </trkpt>
      <trkpt lat="48.53308" lon="-0.29864">
        <ele>310.3</ele>
        <time>2013-08-20T16:10:16Z</time>
      </trkpt>
      <trkpt lat="48.53297" lon="-0.29885">
        <ele>270.5</ele>
        <time>2013-08-20T16:10:46Z</time>
      </trkpt>
      <trkpt lat="48.53341" lon="-0.29927">
        <ele>289</ele>
        <time>2013-08-20T16:11:16Z</time>
      </trkpt>
      <trkpt lat="48.53393" lon="-0.29961">
        <ele>301.3</ele>
        <time>2013-08-20T16:11:46Z</time>
      </trkpt>
      <trkpt lat="48.534" lon="-0.2998">
        <ele>288.2</ele>
        <time>2013-08-20T16:12:15Z</time>
      </trkpt>
      <trkpt lat="48.53431" lon="-0.29999">
        <ele>279.4</ele>
        <time>2013-08-20T16:12:46Z</time>
      </trkpt>
      <trkpt lat="48.5345" lon="-0.30038">
        <ele>271.9</ele>
        <time>2013-08-20T16:13:16Z</time>
      </trkpt>
      <trkpt lat="48.53465" lon="-0.3008">
        <ele>264.1</ele>
        <time>2013-08-20T16:13:46Z</time>
      </trkpt>
      <trkpt lat="48.53534" lon="-0.30115">
        <ele>294.5</ele>
        <time>2013-08-20T16:14:16Z</time>
      </trkpt>
      <trkpt lat="48.53542" lon="-0.30152">
        <ele>263.7</ele>
        <time>2013-08-20T16:14:46Z</time>
      </trkpt>
      <trkpt lat="48.53582" lon="-0.30181">
        <ele>268.7</ele>
        <time>2013-08-20T16:15:16Z</time>
      </trkpt>
      <trkpt lat="48.5359" lon="-0.30224">
        <ele>254.8</ele>
        <time>2013-08-20T16:15:45Z</time>
      </trkpt>
      <trkpt lat="48.53633" lon="-0.30272">
        <ele>256</ele>
        <time>2013-08-20T16:16:15Z</time>
      </trkpt>
      <trkpt lat="48.5365" lon="-0.30323">
        <ele>273.5</ele>
        <time>2013-08-20T16:16:46Z</time>
      </trkpt>
      <trkpt lat="48.53659" lon="-0.30369">
        <ele>270.2</ele>
        <time>2013-08-20T16:17:16Z</time>
      </trkpt>
      <trkpt lat="48.53675" lon="-0.30392">
        <ele>277.2</ele>
        <time>2013-08-20T16:17:47Z</time>
      </trkpt>
      <trkpt lat="48.53672" lon="-0.30419">
        <ele>259.4</ele>
        <time>2013-08-20T16:18:17Z</time>
      </trkpt>
      <trkpt lat="48.53692" lon="-0.30487">
        <ele>258.3</ele>
        <time>2013-08-20T16:18:47Z</time>
      </trkpt>
      <trkpt lat="48.53691" lon="-0.30549">
        <ele>283.4</ele>
        <time>2013-08-20T16:19:19Z</time>
      </trkpt>
      <trkpt lat="48.53691" lon="-0.30588">
        <ele>276.5</ele>
        <time>2013-08-20T16:19:47Z</time>
      </trkpt>
      <trkpt lat="48.53688" lon="-0.30659">
        <ele>286.4</ele>
        <time>2013-08-20T16:20:17Z</time>
      </trkpt>
      <trkpt lat="48.53673" lon="-0.30717">
        <ele>276.7</ele>
        <time>2013-08-20T16:20:47Z</time>
      </trkpt>
      <trkpt lat="48.53656" lon="-0.30735">
        <ele>253</ele>
        <time>2013-08-20T16:21:18Z</time>
      </trkpt>
      <trkpt lat="48.53642" lon="-0.30797">
        <ele>263.2</ele>
        <time>2013-08-20T16:21:47Z</time>
      </trkpt>
      <trkpt lat="48.53636" lon="-0.30847">
        <ele>253.1</ele>
        <time>2013-08-20T16:22:17Z</time>
      </trkpt>
      <trkpt lat="48.53678" lon="-0.30916">
        <ele>275.9</ele>
        <time>2013-08-20T16:22:46Z</time>
      </trkpt>
      <trkpt lat="48.53681" lon="-0.30948">
        <ele>250.5</ele>
        <time>2013-08-20T16:23:17Z</time>
      </trkpt>
      <trkpt lat="48.53699" lon="-0.30998">
        <ele>249.2</ele>
        <time>2013-08-20T16:23:47Z</time>
      </trkpt>
      <trkpt lat="48.53724" lon="-0.31044">
        <ele>244.3</ele>
        <time>2013-08-20T16:24:15Z</time>
      </trkpt>
      <trkpt lat="48.53753" lon="-0.31068">
        <ele>255.5</ele>
        <time>2013-08-20T16:24:47Z</time>
      </trkpt>
      <trkpt lat="48.53765" lon="-0.31087">
        <ele>226.2</ele>
        <time>2013-08-20T16:25:15Z</time>
      </trkpt>
      <trkpt lat="48.53824" lon="-0.31145">
        <ele>289</ele>
        <time>2013-08-20T16:25:45Z</time>
      </trkpt>
      <trkpt lat="48.53843" lon="-0.31161">
        <ele>257.3</ele>
        <time>2013-08-20T16:26:15Z</time>
      </trkpt>
      <trkpt lat="48.53873" lon="-0.31186">
        <ele>259.7</ele>
        <time>2013-08-20T16:26:45Z</time>
      </trkpt>
      <trkpt lat="48.53908" lon="-0.31206">
        <ele>253.6</ele>
        <time>2013-08-20T16:27:15Z</time>
      </trkpt>
      <trkpt lat="48.53906" lon="-0.31229">
        <ele>234.7</ele>
        <time>2013-08-20T16:27:47Z</time>
      </trkpt>
      <trkpt lat="48.53897" lon="-0.31276">
        <ele>244.8</ele>
        <time>2013-08-20T16:28:16Z</time>
      </trkpt>
      <trkpt lat="48.53909" lon="-0.31353">
        <ele>259.4</ele>
        <time>2013-08-20T16:28:46Z</time>
      </trkpt>
      <trkpt lat="48.53871" lon="-0.31376">
        <ele>236.4</ele>
        <time>2013-08-20T16:29:16Z</time>
      </trkpt>
      <trkpt lat="48.53834" lon="-0.31436">
        <ele>243.7</ele>
        <time>2013-08-20T16:29:47Z</time>
      </trkpt>
      <trkpt lat="48.53806" lon="-0.31469">
        <ele>245.2</ele>
        <time>2013-08-20T16:30:16Z</time>
      </trkpt>
      <trkpt lat="48.53778" lon="-0.315">
        <ele>225</ele>
        <time>2013-08-20T16:30:46Z</time>
      </trkpt>
      <trkpt lat="48.53744" lon="-0.31567">
        <ele>241.3</ele>
        <time>2013-08-20T16:31:17Z</time>
      </trkpt>
      <trkpt lat="48.53735" lon="-0.31605">
        <ele>245.2</ele>
        <time>2013-08-20T16:31:46Z</time>
      </trkpt>
      <trkpt lat="48.537" lon="-0.31641">
        <ele>245.8</ele>
        <time>2013-08-20T16:32:18Z</time>
      </trkpt>
      <trkpt lat="48.53689" lon="-0.3167">
        <ele>255</ele>
        <time>2013-08-20T16:32:47Z</time>
      </trkpt>
      <trkpt lat="48.53684" lon="-0.31708">
        <ele>234.6</ele>
        <time>2013-08-20T16:33:19Z</time>
      </trkpt>
      <trkpt lat="48.53679" lon="-0.31781">
        <ele>244.7</ele>
        <time>2013-08-20T16:33:48Z</time>
      </trkpt>
      <trkpt lat="48.5366" lon="-0.31808">
        <ele>237.7</ele>
        <time>2013-08-20T16:34:18Z</time>
      </trkpt>
      <trkpt lat="48.53639" lon="-0.31877">
        <ele>233.2</ele>
        <time>2013-08-20T16:34:48Z</time>
      </trkpt>
      <trkpt lat="48.53634" lon="-0.31899">
        <ele>250.3</ele>
        <time>2013-08-20T16:35:18Z</time>
      </trkpt>
      <trkpt lat="48.53628" lon="-0.31906">
        <ele>274.1</ele>
        <time>2013-08-20T16:35:46Z</time>
      </trkpt>
      <trkpt lat="48.53603" lon="-0.31912">
        <ele>277.1</ele>
        <time>2013-08-20T16:36:17Z</time>
      </trkpt>
      <trkpt lat="48.5357" lon="-0.31897">
        <ele>276.1</ele>
        <time>2013-08-20T16:36:47Z</time>
      </trkpt>
      <trkpt lat="48.53538" lon="-0.31907">
        <ele>274.7</ele>
        <time>2013-08-20T16:37:19Z</time>
      </trkpt>
      <trkpt lat="48.53478" lon="-0.3193">
        <ele>261.3</ele>
        <time>2013-08-20T16:37:48Z</time>
      </trkpt>
      <trkpt lat="48.53469" lon="-0.31926">
        <ele>270.5</ele>
        <time>2013-08-20T16:38:18Z</time>
      </trkpt>
      <trkpt lat="48.53445" lon="-0.31962">
        <ele>281.2</ele>
        <time>2013-08-20T16:38:47Z</time>
      </trkpt>
      <trkpt lat="48.53417" lon="-0.31992">
        <ele>266.4</ele>
        <time>2013-08-20T16:39:16Z</time>
      </trkpt>
      <trkpt lat="48.5339" lon="-0.3203">
        <ele>261.8</ele>
        <time>2013-08-20T16:39:48Z</time>
      </trkpt>
      <trkpt lat="48.53388" lon="-0.32043">
        <ele>296.5</ele>
        <time>2013-08-20T16:40:18Z</time>
      </trkpt>
      <trkpt lat="48.53413" lon="-0.32076">
        <ele>263.5</ele>
        <time>2013-08-20T16:40:50Z</time>
      </trkpt>
      <trkpt lat="48.53388" lon="-0.32058">
        <ele>279</ele>
        <time>2013-08-20T16:41:18Z</time>
      </trkpt>
      <trkpt lat="48.53394" lon="-0.32064">
        <ele>259.6</ele>
        <time>2013-08-20T16:41:52Z</time>
      </trkpt>
      <trkpt lat="48.53391" lon="-0.3203">
        <ele>262</ele>
        <time>2013-08-20T16:42:21Z</time>
      </trkpt>
      <trkpt lat="48.53376" lon="-0.32025">
        <ele>254.7</ele>
        <time>2013-08-20T16:42:49Z</time>
      </trkpt>
      <trkpt lat="48.53378" lon="-0.32037">
        <ele>254.8</ele>
        <time>2013-08-20T16:43:21Z</time>
      </trkpt>
      <trkpt lat="48.53382" lon="-0.3205">
        <ele>257.3</ele>
        <time>2013-08-20T16:43:53Z</time>
      </trkpt>
      <trkpt lat="48.53384" lon="-0.32044">
        <ele>262</ele>
        <time>2013-08-20T16:44:23Z</time>
      </trkpt>
      <trkpt lat="48.53389" lon="-0.32041">
        <ele>284.4</ele>
        <time>2013-08-20T16:44:59Z</time>
      </trkpt>
      <trkpt lat="48.53392" lon="-0.32051">
        <ele>284.3</ele>
        <time>2013-08-20T16:45:14Z</time>
      </trkpt>
      <trkpt lat="48.53389" lon="-0.32059">
        <ele>287</ele>
        <time>2013-08-20T16:46:22Z</time>
      </trkpt>
      <trkpt lat="48.53366" lon="-0.3204">
        <ele>212.2</ele>
        <time>2013-08-20T16:46:57Z</time>
      </trkpt>
      <trkpt lat="48.53394" lon="-0.32055">
        <ele>250.2</ele>
        <time>2013-08-20T16:47:23Z</time>
      </trkpt>
      <trkpt lat="48.53398" lon="-0.32051">
        <ele>237.8</ele>
        <time>2013-08-20T16:47:53Z</time>
      </trkpt>
      <trkpt lat="48.53394" lon="-0.32036">
        <ele>219</ele>
        <time>2013-08-20T16:48:22Z</time>
      </trkpt>
      <trkpt lat="48.53385" lon="-0.3204">
        <ele>259</ele>
        <time>2013-08-20T16:49:22Z</time>
      </trkpt>
      <trkpt lat="48.5339" lon="-0.32041">
        <ele>258.7</ele>
        <time>2013-08-20T16:50:21Z</time>
      </trkpt>
      <trkpt lat="48.53396" lon="-0.32053">
        <ele>259</ele>
        <time>2013-08-20T16:50:54Z</time>
      </trkpt>
      <trkpt lat="48.53391" lon="-0.32056">
        <ele>260.5</ele>
        <time>2013-08-20T16:51:23Z</time>
      </trkpt>
      <trkpt lat="48.53386" lon="-0.32034">
        <ele>256.8</ele>
        <time>2013-08-20T16:52:20Z</time>
      </trkpt>
      <trkpt lat="48.53393" lon="-0.32068">
        <ele>276.8</ele>
        <time>2013-08-20T16:52:58Z</time>
      </trkpt>
      <trkpt lat="48.53395" lon="-0.32021">
        <ele>266.9</ele>
        <time>2013-08-20T16:53:18Z</time>
      </trkpt>
      <trkpt lat="48.5339" lon="-0.32041">
        <ele>247.4</ele>
        <time>2013-08-20T16:53:50Z</time>
      </trkpt>
      <trkpt lat="48.53383" lon="-0.32035">
        <ele>251.2</ele>
        <time>2013-08-20T16:54:18Z</time>
      </trkpt>
      <trkpt lat="48.53379" lon="-0.32054">
        <ele>233.3</ele>
        <time>2013-08-20T16:54:47Z</time>
      </trkpt>
      <trkpt lat="48.53386" lon="-0.32039">
        <ele>260.5</ele>
        <time>2013-08-20T16:55:19Z</time>
      </trkpt>
      <trkpt lat="48.53376" lon="-0.3204">
        <ele>252.5</ele>
        <time>2013-08-20T16:55:48Z</time>
      </trkpt>
      <trkpt lat="48.53384" lon="-0.32028">
        <ele>251.1</ele>
        <time>2013-08-20T16:56:29Z</time>
      </trkpt>
      <trkpt lat="48.53386" lon="-0.32036">
        <ele>251.8</ele>
        <time>2013-08-20T16:57:14Z</time>
      </trkpt>
      <trkpt lat="48.53387" lon="-0.32043">
        <ele>251.3</ele>
        <time>2013-08-20T16:58:21Z</time>
      </trkpt>
      <trkpt lat="48.53392" lon="-0.32">
        <ele>264.6</ele>
        <time>2013-08-20T16:59:48Z</time>
      </trkpt>
      <trkpt lat="48.53393" lon="-0.32028">
        <ele>271.7</ele>
        <time>2013-08-20T17:00:21Z</time>
      </trkpt>
      <trkpt lat="48.53394" lon="-0.32039">
        <ele>268.1</ele>
        <time>2013-08-20T17:01:24Z</time>
      </trkpt>
      <trkpt lat="48.53407" lon="-0.3204">
        <ele>263.2</ele>
        <time>2013-08-20T17:04:22Z</time>
      </trkpt>
      <trkpt lat="48.53418" lon="-0.3207">
        <ele>281.6</ele>
        <time>2013-08-20T17:04:49Z</time>
      </trkpt>
      <trkpt lat="48.53392" lon="-0.32047">
        <ele>240.2</ele>
        <time>2013-08-20T17:05:19Z</time>
      </trkpt>
      <trkpt lat="48.5339" lon="-0.3203">
        <ele>264.9</ele>
        <time>2013-08-20T17:05:59Z</time>
      </trkpt>
      <trkpt lat="48.5339" lon="-0.32041">
        <ele>258.7</ele>
        <time>2013-08-20T17:06:15Z</time>
      </trkpt>
      <trkpt lat="48.5338" lon="-0.32035">
        <ele>259.1</ele>
        <time>2013-08-20T17:06:48Z</time>
      </trkpt>
      <trkpt lat="48.53407" lon="-0.32057">
        <ele>250.7</ele>
        <time>2013-08-20T17:07:48Z</time>
      </trkpt>
      <trkpt lat="48.53388" lon="-0.32038">
        <ele>277.6</ele>
        <time>2013-08-20T17:08:18Z</time>
      </trkpt>
      <trkpt lat="48.5338" lon="-0.32004">
        <ele>248.3</ele>
        <time>2013-08-20T17:09:16Z</time>
      </trkpt>
      <trkpt lat="48.53384" lon="-0.32036">
        <ele>255.1</ele>
        <time>2013-08-20T17:09:47Z</time>
      </trkpt>
      <trkpt lat="48.53379" lon="-0.32026">
        <ele>253.7</ele>
        <time>2013-08-20T17:10:16Z</time>
      </trkpt>
      <trkpt lat="48.53397" lon="-0.32073">
        <ele>262.8</ele>
        <time>2013-08-20T17:10:47Z</time>
      </trkpt>
      <trkpt lat="48.53397" lon="-0.32038">
        <ele>244.5</ele>
        <time>2013-08-20T17:11:46Z</time>
      </trkpt>
      <trkpt lat="48.53388" lon="-0.32044">
        <ele>251.3</ele>
        <time>2013-08-20T17:12:16Z</time>
      </trkpt>
      <trkpt lat="48.53391" lon="-0.32066">
        <ele>246.5</ele>
        <time>2013-08-20T17:12:46Z</time>
      </trkpt>
      <trkpt lat="48.53391" lon="-0.32034">
        <ele>294.6</ele>
        <time>2013-08-20T17:13:16Z</time>
      </trkpt>
      <trkpt lat="48.53373" lon="-0.3209">
        <ele>255</ele>
        <time>2013-08-20T17:13:47Z</time>
      </trkpt>
      <trkpt lat="48.53367" lon="-0.32117">
        <ele>259.9</ele>
        <time>2013-08-20T17:14:17Z</time>
      </trkpt>
      <trkpt lat="48.5338" lon="-0.32177">
        <ele>249.7</ele>
        <time>2013-08-20T17:14:45Z</time>
      </trkpt>
      <trkpt lat="48.53366" lon="-0.32234">
        <ele>250.9</ele>
        <time>2013-08-20T17:15:15Z</time>
      </trkpt>
      <trkpt lat="48.53353" lon="-0.32286">
        <ele>271.5</ele>
        <time>2013-08-20T17:15:46Z</time>
      </trkpt>
      <trkpt lat="48.5337" lon="-0.32341">
        <ele>251.1</ele>
        <time>2013-08-20T17:16:15Z</time>
      </trkpt>
      <trkpt lat="48.53366" lon="-0.3238">
        <ele>259.1</ele>
        <time>2013-08-20T17:16:46Z</time>
      </trkpt>
      <trkpt lat="48.53363" lon="-0.32438">
        <ele>245.6</ele>
        <time>2013-08-20T17:17:16Z</time>
      </trkpt>
      <trkpt lat="48.53379" lon="-0.32525">
        <ele>262.3</ele>
        <time>2013-08-20T17:17:46Z</time>
      </trkpt>
      <trkpt lat="48.53354" lon="-0.32554">
        <ele>261.3</ele>
        <time>2013-08-20T17:18:16Z</time>
      </trkpt>
      <trkpt lat="48.53356" lon="-0.326">
        <ele>242.2</ele>
        <time>2013-08-20T17:18:46Z</time>
      </trkpt>
      <trkpt lat="48.53325" lon="-0.32652">
        <ele>257.9</ele>
        <time>2013-08-20T17:19:15Z</time>
      </trkpt>
      <trkpt lat="48.53317" lon="-0.32696">
        <ele>257.6</ele>
        <time>2013-08-20T17:19:46Z</time>
      </trkpt>
      <trkpt lat="48.53299" lon="-0.32739">
        <ele>254.8</ele>
        <time>2013-08-20T17:20:16Z</time>
      </trkpt>
      <trkpt lat="48.53284" lon="-0.32765">
        <ele>257.1</ele>
        <time>2013-08-20T17:20:46Z</time>
      </trkpt>
      <trkpt lat="48.53273" lon="-0.32831">
        <ele>255.7</ele>
        <time>2013-08-20T17:21:17Z</time>
      </trkpt>
      <trkpt lat="48.53253" lon="-0.32879">
        <ele>231.7</ele>
        <time>2013-08-20T17:21:48Z</time>
      </trkpt>
      <trkpt lat="48.53252" lon="-0.32895">
        <ele>246.3</ele>
        <time>2013-08-20T17:22:19Z</time>
      </trkpt>
      <trkpt lat="48.53256" lon="-0.32845">
        <ele>228.2</ele>
        <time>2013-08-20T17:22:47Z</time>
      </trkpt>
      <trkpt lat="48.53275" lon="-0.32884">
        <ele>268.8</ele>
        <time>2013-08-20T17:23:18Z</time>
      </trkpt>
      <trkpt lat="48.53304" lon="-0.32901">
        <ele>255.3</ele>
        <time>2013-08-20T17:23:47Z</time>
      </trkpt>
      <trkpt lat="48.53318" lon="-0.32909">
        <ele>264.2</ele>
        <time>2013-08-20T17:24:17Z</time>
      </trkpt>
      <trkpt lat="48.53328" lon="-0.32928">
        <ele>276.3</ele>
        <time>2013-08-20T17:24:46Z</time>
      </trkpt>
      <trkpt lat="48.53355" lon="-0.32931">
        <ele>261.9</ele>
        <time>2013-08-20T17:25:15Z</time>
      </trkpt>
      <trkpt lat="48.53382" lon="-0.32961">
        <ele>265.9</ele>
        <time>2013-08-20T17:25:45Z</time>
      </trkpt>
      <trkpt lat="48.53409" lon="-0.32996">
        <ele>265.8</ele>
        <time>2013-08-20T17:26:16Z</time>
      </trkpt>
      <trkpt lat="48.53431" lon="-0.33017">
        <ele>261.9</ele>
        <time>2013-08-20T17:26:46Z</time>
      </trkpt>
      <trkpt lat="48.53456" lon="-0.33075">
        <ele>278.7</ele>
        <time>2013-08-20T17:27:16Z</time>
      </trkpt>
      <trkpt lat="48.53486" lon="-0.331">
        <ele>264.4</ele>
        <time>2013-08-20T17:27:47Z</time>
      </trkpt>
      <trkpt lat="48.53487" lon="-0.33165">
        <ele>280</ele>
        <time>2013-08-20T17:28:16Z</time>
      </trkpt>
      <trkpt lat="48.53527" lon="-0.33184">
        <ele>259.5</ele>
        <time>2013-08-20T17:28:46Z</time>
      </trkpt>
      <trkpt lat="48.53525" lon="-0.3325">
        <ele>239.9</ele>
        <time>2013-08-20T17:29:16Z</time>
      </trkpt>
      <trkpt lat="48.5351" lon="-0.33281">
        <ele>253.7</ele>
        <time>2013-08-20T17:29:47Z</time>
      </trkpt>
      <trkpt lat="48.53513" lon="-0.33346">
        <ele>237</ele>
        <time>2013-08-20T17:30:16Z</time>
      </trkpt>
      <trkpt lat="48.53499" lon="-0.33413">
        <ele>234.5</ele>
        <time>2013-08-20T17:30:47Z</time>
      </trkpt>
      <trkpt lat="48.53494" lon="-0.33467">
        <ele>240.8</ele>
        <time>2013-08-20T17:31:17Z</time>
      </trkpt>
      <trkpt lat="48.53487" lon="-0.33505">
        <ele>243.7</ele>
        <time>2013-08-20T17:31:49Z</time>
      </trkpt>
      <trkpt lat="48.53486" lon="-0.33578">
        <ele>240.6</ele>
        <time>2013-08-20T17:32:17Z</time>
      </trkpt>
      <trkpt lat="48.53473" lon="-0.33616">
        <ele>222.4</ele>
        <time>2013-08-20T17:32:47Z</time>
      </trkpt>
      <trkpt lat="48.5347" lon="-0.33682">
        <ele>233.8</ele>
        <time>2013-08-20T17:33:17Z</time>
      </trkpt>
      <trkpt lat="48.5346" lon="-0.33741">
        <ele>227.1</ele>
        <time>2013-08-20T17:33:47Z</time>
      </trkpt>
      <trkpt lat="48.53457" lon="-0.33806">
        <ele>224.5</ele>
        <time>2013-08-20T17:34:17Z</time>
      </trkpt>
      <trkpt lat="48.53451" lon="-0.33866">
        <ele>218.5</ele>
        <time>2013-08-20T17:34:49Z</time>
      </trkpt>
      <trkpt lat="48.5344" lon="-0.3386">
        <ele>215.4</ele>
        <time>2013-08-20T17:35:16Z</time>
      </trkpt>
      <trkpt lat="48.53431" lon="-0.33923">
        <ele>209.4</ele>
        <time>2013-08-20T17:35:46Z</time>
      </trkpt>
      <trkpt lat="48.53424" lon="-0.3395">
        <ele>235.1</ele>
        <time>2013-08-20T17:36:16Z</time>
      </trkpt>
      <trkpt lat="48.53412" lon="-0.34023">
        <ele>228.7</ele>
        <time>2013-08-20T17:36:47Z</time>
      </trkpt>
      <trkpt lat="48.53408" lon="-0.34068">
        <ele>238.9</ele>
        <time>2013-08-20T17:37:17Z</time>
      </trkpt>
      <trkpt lat="48.53404" lon="-0.34128">
        <ele>240</ele>
        <time>2013-08-20T17:37:49Z</time>
      </trkpt>
      <trkpt lat="48.53397" lon="-0.34161">
        <ele>257.4</ele>
        <time>2013-08-20T17:38:17Z</time>
      </trkpt>
      <trkpt lat="48.53385" lon="-0.34198">
        <ele>249</ele>
        <time>2013-08-20T17:38:46Z</time>
      </trkpt>
      <trkpt lat="48.53394" lon="-0.34261">
        <ele>235.3</ele>
        <time>2013-08-20T17:39:16Z</time>
      </trkpt>
      <trkpt lat="48.53373" lon="-0.34312">
        <ele>251.2</ele>
        <time>2013-08-20T17:39:47Z</time>
      </trkpt>
      <trkpt lat="48.53368" lon="-0.34351">
        <ele>255.9</ele>
        <time>2013-08-20T17:40:16Z</time>
      </trkpt>
      <trkpt lat="48.53368" lon="-0.34395">
        <ele>260.6</ele>
        <time>2013-08-20T17:40:47Z</time>
      </trkpt>
      <trkpt lat="48.53365" lon="-0.34414">
        <ele>250.1</ele>
        <time>2013-08-20T17:41:16Z</time>
      </trkpt>
      <trkpt lat="48.53351" lon="-0.34466">
        <ele>263.5</ele>
        <time>2013-08-20T17:41:46Z</time>
      </trkpt>
      <trkpt lat="48.5334" lon="-0.34501">
        <ele>299.7</ele>
        <time>2013-08-20T17:42:16Z</time>
      </trkpt>
      <trkpt lat="48.53349" lon="-0.34499">
        <ele>277.9</ele>
        <time>2013-08-20T17:42:45Z</time>
      </trkpt>
      <trkpt lat="48.53359" lon="-0.34576">
        <ele>267.7</ele>
        <time>2013-08-20T17:43:16Z</time>
      </trkpt>
      <trkpt lat="48.53375" lon="-0.34622">
        <ele>260.2</ele>
        <time>2013-08-20T17:43:46Z</time>
      </trkpt>
      <trkpt lat="48.53392" lon="-0.34667">
        <ele>278.3</ele>
        <time>2013-08-20T17:44:16Z</time>
      </trkpt>
      <trkpt lat="48.53409" lon="-0.34737">
        <ele>275.4</ele>
        <time>2013-08-20T17:44:46Z</time>
      </trkpt>
      <trkpt lat="48.53429" lon="-0.34776">
        <ele>272.7</ele>
        <time>2013-08-20T17:45:16Z</time>
      </trkpt>
      <trkpt lat="48.5345" lon="-0.34851">
        <ele>259.9</ele>
        <time>2013-08-20T17:45:46Z</time>
      </trkpt>
      <trkpt lat="48.53456" lon="-0.34888">
        <ele>272.1</ele>
        <time>2013-08-20T17:46:16Z</time>
      </trkpt>
      <trkpt lat="48.53485" lon="-0.34942">
        <ele>281</ele>
        <time>2013-08-20T17:46:47Z</time>
      </trkpt>
      <trkpt lat="48.53505" lon="-0.35036">
        <ele>250.7</ele>
        <time>2013-08-20T17:47:16Z</time>
      </trkpt>
      <trkpt lat="48.5352" lon="-0.35044">
        <ele>266.9</ele>
        <time>2013-08-20T17:47:45Z</time>
      </trkpt>
      <trkpt lat="48.53555" lon="-0.35084">
        <ele>239.7</ele>
        <time>2013-08-20T17:48:16Z</time>
      </trkpt>
      <trkpt lat="48.5358" lon="-0.35145">
        <ele>246.4</ele>
        <time>2013-08-20T17:48:46Z</time>
      </trkpt>
      <trkpt lat="48.53597" lon="-0.35161">
        <ele>262.7</ele>
        <time>2013-08-20T17:49:16Z</time>
      </trkpt>
      <trkpt lat="48.53615" lon="-0.35192">
        <ele>273.1</ele>
        <time>2013-08-20T17:49:46Z</time>
      </trkpt>
      <trkpt lat="48.53638" lon="-0.35226">
        <ele>285.3</ele>
        <time>2013-08-20T17:50:16Z</time>
      </trkpt>
      <trkpt lat="48.53655" lon="-0.35223">
        <ele>278.5</ele>
        <time>2013-08-20T17:50:46Z</time>
      </trkpt>
      <trkpt lat="48.53673" lon="-0.35309">
        <ele>254.9</ele>
        <time>2013-08-20T17:51:16Z</time>
      </trkpt>
      <trkpt lat="48.53706" lon="-0.35357">
        <ele>248.1</ele>
        <time>2013-08-20T17:51:46Z</time>
      </trkpt>
      <trkpt lat="48.53735" lon="-0.35406">
        <ele>261.6</ele>
        <time>2013-08-20T17:52:17Z</time>
      </trkpt>
      <trkpt lat="48.53751" lon="-0.35462">
        <ele>245.7</ele>
        <time>2013-08-20T17:52:46Z</time>
      </trkpt>
      <trkpt lat="48.53774" lon="-0.35499">
        <ele>263.3</ele>
        <time>2013-08-20T17:53:16Z</time>
      </trkpt>
      <trkpt lat="48.53787" lon="-0.35553">
        <ele>263.7</ele>
        <time>2013-08-20T17:53:47Z</time>
      </trkpt>
      <trkpt lat="48.5383" lon="-0.35575">
        <ele>256</ele>
        <time>2013-08-20T17:54:17Z</time>
      </trkpt>
      <trkpt lat="48.53842" lon="-0.35621">
        <ele>214.7</ele>
        <time>2013-08-20T17:54:46Z</time>
      </trkpt>
      <trkpt lat="48.53824" lon="-0.3554">
        <ele>232.7</ele>
        <time>2013-08-20T17:55:18Z</time>
      </trkpt>
      <trkpt lat="48.53834" lon="-0.35612">
        <ele>238</ele>
        <time>2013-08-20T17:55:47Z</time>
      </trkpt>
      <trkpt lat="48.53834" lon="-0.35624">
        <ele>234.6</ele>
        <time>2013-08-20T17:56:16Z</time>
      </trkpt>
      <trkpt lat="48.53837" lon="-0.35594">
        <ele>261.9</ele>
        <time>2013-08-20T17:56:47Z</time>
      </trkpt>
      <trkpt lat="48.5383" lon="-0.35595">
        <ele>245.9</ele>
        <time>2013-08-20T17:57:18Z</time>
      </trkpt>
      <trkpt lat="48.53826" lon="-0.35575">
        <ele>248</ele>
        <time>2013-08-20T17:57:47Z</time>
      </trkpt>
      <trkpt lat="48.53843" lon="-0.35595">
        <ele>264.8</ele>
        <time>2013-08-20T17:58:16Z</time>
      </trkpt>
      <trkpt lat="48.53863" lon="-0.35661">
        <ele>247.1</ele>
        <time>2013-08-20T17:58:46Z</time>
      </trkpt>
      <trkpt lat="48.5387" lon="-0.35729">
        <ele>225.7</ele>
        <time>2013-08-20T17:59:16Z</time>
      </trkpt>
      <trkpt lat="48.5388" lon="-0.35774">
        <ele>235.7</ele>
        <time>2013-08-20T17:59:46Z</time>
      </trkpt>
      <trkpt lat="48.53885" lon="-0.35806">
        <ele>228.2</ele>
        <time>2013-08-20T18:00:17Z</time>
      </trkpt>
      <trkpt lat="48.53881" lon="-0.35866">
        <ele>229.9</ele>
        <time>2013-08-20T18:00:46Z</time>
      </trkpt>
      <trkpt lat="48.53884" lon="-0.35893">
        <ele>222.4</ele>
        <time>2013-08-20T18:01:16Z</time>
      </trkpt>
      <trkpt lat="48.53886" lon="-0.35928">
        <ele>215.9</ele>
        <time>2013-08-20T18:01:46Z</time>
      </trkpt>
      <trkpt lat="48.53883" lon="-0.35954">
        <ele>214.7</ele>
        <time>2013-08-20T18:02:15Z</time>
      </trkpt>
      <trkpt lat="48.53897" lon="-0.36007">
        <ele>190.5</ele>
        <time>2013-08-20T18:02:45Z</time>
      </trkpt>
      <trkpt lat="48.53908" lon="-0.36036">
        <ele>215.5</ele>
        <time>2013-08-20T18:03:15Z</time>
      </trkpt>
      <trkpt lat="48.5392" lon="-0.36105">
        <ele>203.2</ele>
        <time>2013-08-20T18:03:45Z</time>
      </trkpt>
      <trkpt lat="48.53934" lon="-0.36134">
        <ele>224.4</ele>
        <time>2013-08-20T18:04:16Z</time>
      </trkpt>
      <trkpt lat="48.53941" lon="-0.36164">
        <ele>222.6</ele>
        <time>2013-08-20T18:04:46Z</time>
      </trkpt>
      <trkpt lat="48.53938" lon="-0.36211">
        <ele>221.2</ele>
        <time>2013-08-20T18:05:16Z</time>
      </trkpt>
      <trkpt lat="48.53928" lon="-0.36208">
        <ele>243.8</ele>
        <time>2013-08-20T18:05:46Z</time>
      </trkpt>
      <trkpt lat="48.53905" lon="-0.3625">
        <ele>219.5</ele>
        <time>2013-08-20T18:06:16Z</time>
      </trkpt>
      <trkpt lat="48.53894" lon="-0.36257">
        <ele>258.2</ele>
        <time>2013-08-20T18:06:46Z</time>
      </trkpt>
      <trkpt lat="48.53883" lon="-0.36329">
        <ele>236.1</ele>
        <time>2013-08-20T18:07:17Z</time>
      </trkpt>
      <trkpt lat="48.53856" lon="-0.36348">
        <ele>265.9</ele>
        <time>2013-08-20T18:07:46Z</time>
      </trkpt>
      <trkpt lat="48.53845" lon="-0.36412">
        <ele>254.5</ele>
        <time>2013-08-20T18:08:16Z</time>
      </trkpt>
      <trkpt lat="48.53828" lon="-0.36478">
        <ele>247.2</ele>
        <time>2013-08-20T18:08:47Z</time>
      </trkpt>
      <trkpt lat="48.53836" lon="-0.36511">
        <ele>266.2</ele>
        <time>2013-08-20T18:09:17Z</time>
      </trkpt>
      <trkpt lat="48.53829" lon="-0.36576">
        <ele>258.1</ele>
        <time>2013-08-20T18:09:46Z</time>
      </trkpt>
      <trkpt lat="48.53834" lon="-0.3663">
        <ele>246.7</ele>
        <time>2013-08-20T18:10:16Z</time>
      </trkpt>
      <trkpt lat="48.5381" lon="-0.36692">
        <ele>272.3</ele>
        <time>2013-08-20T18:10:47Z</time>
      </trkpt>
      <trkpt lat="48.5382" lon="-0.36743">
        <ele>252</ele>
        <time>2013-08-20T18:11:16Z</time>
      </trkpt>
      <trkpt lat="48.53829" lon="-0.36809">
        <ele>257.9</ele>
        <time>2013-08-20T18:11:45Z</time>
      </trkpt>
      <trkpt lat="48.53838" lon="-0.36851">
        <ele>239</ele>
        <time>2013-08-20T18:12:16Z</time>
      </trkpt>
      <trkpt lat="48.53848" lon="-0.36896">
        <ele>266.8</ele>
        <time>2013-08-20T18:12:46Z</time>
      </trkpt>
      <trkpt lat="48.53865" lon="-0.36975">
        <ele>263.3</ele>
        <time>2013-08-20T18:13:16Z</time>
      </trkpt>
      <trkpt lat="48.53862" lon="-0.37004">
        <ele>256.5</ele>
        <time>2013-08-20T18:13:46Z</time>
      </trkpt>
      <trkpt lat="48.53882" lon="-0.37065">
        <ele>267.1</ele>
        <time>2013-08-20T18:14:16Z</time>
      </trkpt>
      <trkpt lat="48.53901" lon="-0.37108">
        <ele>265.7</ele>
        <time>2013-08-20T18:14:46Z</time>
      </trkpt>
      <trkpt lat="48.53916" lon="-0.37171">
        <ele>256</ele>
        <time>2013-08-20T18:15:16Z</time>
      </trkpt>
      <trkpt lat="48.53938" lon="-0.37224">
        <ele>249.2</ele>
        <time>2013-08-20T18:15:46Z</time>
      </trkpt>
      <trkpt lat="48.53974" lon="-0.37257">
        <ele>266.7</ele>
        <time>2013-08-20T18:16:15Z</time>
      </trkpt>
      <trkpt lat="48.5399" lon="-0.37318">
        <ele>249</ele>
        <time>2013-08-20T18:16:46Z</time>
      </trkpt>
      <trkpt lat="48.54006" lon="-0.37351">
        <ele>237.7</ele>
        <time>2013-08-20T18:17:15Z</time>
      </trkpt>
      <trkpt lat="48.54042" lon="-0.37398">
        <ele>251.9</ele>
        <time>2013-08-20T18:17:46Z</time>
      </trkpt>
      <trkpt lat="48.54064" lon="-0.37466">
        <ele>249.5</ele>
        <time>2013-08-20T18:18:16Z</time>
      </trkpt>
      <trkpt lat="48.54091" lon="-0.37491">
        <ele>276.2</ele>
        <time>2013-08-20T18:18:45Z</time>
      </trkpt>
      <trkpt lat="48.54108" lon="-0.37538">
        <ele>255.8</ele>
        <time>2013-08-20T18:19:16Z</time>
      </trkpt>
      <trkpt lat="48.54129" lon="-0.37588">
        <ele>255.3</ele>
        <time>2013-08-20T18:19:45Z</time>
      </trkpt>
      <trkpt lat="48.54152" lon="-0.37636">
        <ele>247.7</ele>
        <time>2013-08-20T18:20:15Z</time>
      </trkpt>
      <trkpt lat="48.54169" lon="-0.3769">
        <ele>250.8</ele>
        <time>2013-08-20T18:20:46Z</time>
      </trkpt>
      <trkpt lat="48.54201" lon="-0.37752">
        <ele>242.4</ele>
        <time>2013-08-20T18:21:15Z</time>
      </trkpt>
      <trkpt lat="48.54224" lon="-0.37788">
        <ele>253.3</ele>
        <time>2013-08-20T18:21:46Z</time>
      </trkpt>
      <trkpt lat="48.54242" lon="-0.37828">
        <ele>224.9</ele>
        <time>2013-08-20T18:22:15Z</time>
      </trkpt>
      <trkpt lat="48.54265" lon="-0.37867">
        <ele>248.3</ele>
        <time>2013-08-20T18:22:45Z</time>
      </trkpt>
      <trkpt lat="48.54286" lon="-0.37904">
        <ele>250.5</ele>
        <time>2013-08-20T18:23:16Z</time>
      </trkpt>
      <trkpt lat="48.5429" lon="-0.37891">
        <ele>264.8</ele>
        <time>2013-08-20T18:23:46Z</time>
      </trkpt>
      <trkpt lat="48.54318" lon="-0.37889">
        <ele>256.5</ele>
        <time>2013-08-20T18:24:16Z</time>
      </trkpt>
      <trkpt lat="48.54359" lon="-0.37895">
        <ele>239.2</ele>
        <time>2013-08-20T18:24:45Z</time>
      </trkpt>
      <trkpt lat="48.54383" lon="-0.37946">
        <ele>246.5</ele>
        <time>2013-08-20T18:25:16Z</time>
      </trkpt>
      <trkpt lat="48.5439" lon="-0.37965">
        <ele>253.3</ele>
        <time>2013-08-20T18:25:48Z</time>
      </trkpt>
      <trkpt lat="48.54422" lon="-0.37928">
        <ele>236.1</ele>
        <time>2013-08-20T18:26:17Z</time>
      </trkpt>
      <trkpt lat="48.54444" lon="-0.37895">
        <ele>241</ele>
        <time>2013-08-20T18:26:46Z</time>
      </trkpt>
      <trkpt lat="48.54475" lon="-0.37871">
        <ele>245.5</ele>
        <time>2013-08-20T18:27:17Z</time>
      </trkpt>
      <trkpt lat="48.54497" lon="-0.37848">
        <ele>262.4</ele>
        <time>2013-08-20T18:27:46Z</time>
      </trkpt>
      <trkpt lat="48.54533" lon="-0.37809">
        <ele>229.7</ele>
        <time>2013-08-20T18:28:16Z</time>
      </trkpt>
      <trkpt lat="48.54545" lon="-0.3779">
        <ele>231.3</ele>
        <time>2013-08-20T18:28:45Z</time>
      </trkpt>
      <trkpt lat="48.54581" lon="-0.37748">
        <ele>225.2</ele>
        <time>2013-08-20T18:29:15Z</time>
      </trkpt>
      <trkpt lat="48.54621" lon="-0.37715">
        <ele>204.1</ele>
        <time>2013-08-20T18:29:46Z</time>
      </trkpt>
      <trkpt lat="48.54638" lon="-0.37725">
        <ele>225.4</ele>
        <time>2013-08-20T18:30:16Z</time>
      </trkpt>
      <trkpt lat="48.54681" lon="-0.37757">
        <ele>213.2</ele>
        <time>2013-08-20T18:30:45Z</time>
      </trkpt>
      <trkpt lat="48.5469" lon="-0.37809">
        <ele>232.3</ele>
        <time>2013-08-20T18:31:15Z</time>
      </trkpt>
      <trkpt lat="48.54704" lon="-0.37872">
        <ele>217.4</ele>
        <time>2013-08-20T18:31:46Z</time>
      </trkpt>
      <trkpt lat="48.54727" lon="-0.37915">
        <ele>222.7</ele>
        <time>2013-08-20T18:32:16Z</time>
      </trkpt>
      <trkpt lat="48.54737" lon="-0.3792">
        <ele>226.8</ele>
        <time>2013-08-20T18:32:46Z</time>
      </trkpt>
      <trkpt lat="48.54732" lon="-0.37956">
        <ele>233</ele>
        <time>2013-08-20T18:33:16Z</time>
      </trkpt>
      <trkpt lat="48.54738" lon="-0.3792">
        <ele>266.1</ele>
        <time>2013-08-20T18:33:46Z</time>
      </trkpt>
      <trkpt lat="48.54732" lon="-0.37957">
        <ele>243.3</ele>
        <time>2013-08-20T18:34:16Z</time>
      </trkpt>
      <trkpt lat="48.54727" lon="-0.3795">
        <ele>194.7</ele>
        <time>2013-08-20T18:34:45Z</time>
      </trkpt>
      <trkpt lat="48.54741" lon="-0.37971">
        <ele>223.1</ele>
        <time>2013-08-20T18:35:16Z</time>
      </trkpt>
      <trkpt lat="48.54752" lon="-0.37949">
        <ele>249.1</ele>
        <time>2013-08-20T18:35:46Z</time>
      </trkpt>
      <trkpt lat="48.54774" lon="-0.38003">
        <ele>243.1</ele>
        <time>2013-08-20T18:36:16Z</time>
      </trkpt>
      <trkpt lat="48.54768" lon="-0.38041">
        <ele>210.6</ele>
        <time>2013-08-20T18:36:46Z</time>
      </trkpt>
      <trkpt lat="48.54805" lon="-0.38093">
        <ele>228.6</ele>
        <time>2013-08-20T18:37:16Z</time>
      </trkpt>
      <trkpt lat="48.54824" lon="-0.38135">
        <ele>231.5</ele>
        <time>2013-08-20T18:37:46Z</time>
      </trkpt>
      <trkpt lat="48.54838" lon="-0.38192">
        <ele>211.8</ele>
        <time>2013-08-20T18:38:21Z</time>
      </trkpt>
      <trkpt lat="48.54866" lon="-0.38221">
        <ele>219.9</ele>
        <time>2013-08-20T18:38:47Z</time>
      </trkpt>
      <trkpt lat="48.54867" lon="-0.38282">
        <ele>225.5</ele>
        <time>2013-08-20T18:39:20Z</time>
      </trkpt>
      <trkpt lat="48.54904" lon="-0.38315">
        <ele>215.8</ele>
        <time>2013-08-20T18:39:51Z</time>
      </trkpt>
      <trkpt lat="48.54924" lon="-0.38358">
        <ele>201.4</ele>
        <time>2013-08-20T18:40:21Z</time>
      </trkpt>
      <trkpt lat="48.54949" lon="-0.38396">
        <ele>221.2</ele>
        <time>2013-08-20T18:40:49Z</time>
      </trkpt>
      <trkpt lat="48.54982" lon="-0.38457">
        <ele>221</ele>
        <time>2013-08-20T18:41:21Z</time>
      </trkpt>
      <trkpt lat="48.54995" lon="-0.38519">
        <ele>210.3</ele>
        <time>2013-08-20T18:41:55Z</time>
      </trkpt>
      <trkpt lat="48.55034" lon="-0.38575">
        <ele>225</ele>
        <time>2013-08-20T18:42:35Z</time>
      </trkpt>
      <trkpt lat="48.55029" lon="-0.386">
        <ele>227.2</ele>
        <time>2013-08-20T18:42:51Z</time>
      </trkpt>
      <trkpt lat="48.55053" lon="-0.38697">
        <ele>273.1</ele>
        <time>2013-08-20T18:43:27Z</time>
      </trkpt>
      <trkpt lat="48.55071" lon="-0.38653">
        <ele>244.2</ele>
        <time>2013-08-20T18:43:47Z</time>
      </trkpt>
      <trkpt lat="48.55093" lon="-0.38743">
        <ele>270.7</ele>
        <time>2013-08-20T18:44:19Z</time>
      </trkpt>
      <trkpt lat="48.55132" lon="-0.38807">
        <ele>231.9</ele>
        <time>2013-08-20T18:45:03Z</time>
      </trkpt>
      <trkpt lat="48.55141" lon="-0.38856">
        <ele>230</ele>
        <time>2013-08-20T18:45:41Z</time>
      </trkpt>
      <trkpt lat="48.55143" lon="-0.38863">
        <ele>228.8</ele>
        <time>2013-08-20T18:45:52Z</time>
      </trkpt>
      <trkpt lat="48.55201" lon="-0.38922">
        <ele>227.5</ele>
        <time>2013-08-20T18:46:26Z</time>
      </trkpt>
      <trkpt lat="48.55208" lon="-0.39026">
        <ele>187.5</ele>
        <time>2013-08-20T18:47:30Z</time>
      </trkpt>
      <trkpt lat="48.55206" lon="-0.3907">
        <ele>189.2</ele>
        <time>2013-08-20T18:47:57Z</time>
      </trkpt>
      <trkpt lat="48.55249" lon="-0.39128">
        <ele>218.5</ele>
        <time>2013-08-20T18:48:30Z</time>
      </trkpt>
      <trkpt lat="48.55319" lon="-0.39159">
        <ele>249.9</ele>
        <time>2013-08-20T18:49:00Z</time>
      </trkpt>
      <trkpt lat="48.55313" lon="-0.39194">
        <ele>234.6</ele>
        <time>2013-08-20T18:49:21Z</time>
      </trkpt>
      <trkpt lat="48.55344" lon="-0.3924">
        <ele>242.6</ele>
        <time>2013-08-20T18:49:52Z</time>
      </trkpt>
      <trkpt lat="48.55374" lon="-0.39266">
        <ele>204.9</ele>
        <time>2013-08-20T18:50:25Z</time>
      </trkpt>
      <trkpt lat="48.55322" lon="-0.39239">
        <ele>301.5</ele>
        <time>2013-08-20T18:51:08Z</time>
      </trkpt>
      <trkpt lat="48.5531" lon="-0.39326">
        <ele>264.9</ele>
        <time>2013-08-20T18:51:24Z</time>
      </trkpt>
      <trkpt lat="48.55297" lon="-0.39333">
        <ele>246.7</ele>
        <time>2013-08-20T18:51:52Z</time>
      </trkpt>
      <trkpt lat="48.5529" lon="-0.39374">
        <ele>230.4</ele>
        <time>2013-08-20T18:52:27Z</time>
      </trkpt>
      <trkpt lat="48.55286" lon="-0.39433">
        <ele>227.2</ele>
        <time>2013-08-20T18:52:59Z</time>
      </trkpt>
      <trkpt lat="48.55259" lon="-0.39459">
        <ele>241.7</ele>
        <time>2013-08-20T18:53:23Z</time>
      </trkpt>
      <trkpt lat="48.552" lon="-0.39691">
        <ele>209.2</ele>
        <time>2013-08-20T18:55:24Z</time>
      </trkpt>
      <trkpt lat="48.55214" lon="-0.39715">
        <ele>247.9</ele>
        <time>2013-08-20T18:55:53Z</time>
      </trkpt>
      <trkpt lat="48.55172" lon="-0.39799">
        <ele>252</ele>
        <time>2013-08-20T18:56:28Z</time>
      </trkpt>
      <trkpt lat="48.5516" lon="-0.39841">
        <ele>248.2</ele>
        <time>2013-08-20T18:56:57Z</time>
      </trkpt>
      <trkpt lat="48.55167" lon="-0.39871">
        <ele>278.1</ele>
        <time>2013-08-20T18:57:21Z</time>
      </trkpt>
      <trkpt lat="48.55185" lon="-0.39894">
        <ele>278.8</ele>
        <time>2013-08-20T18:57:54Z</time>
      </trkpt>
      <trkpt lat="48.55205" lon="-0.39923">
        <ele>244.3</ele>
        <time>2013-08-20T18:58:19Z</time>
      </trkpt>
      <trkpt lat="48.55268" lon="-0.39967">
        <ele>242.2</ele>
        <time>2013-08-20T18:59:03Z</time>
      </trkpt>
      <trkpt lat="48.55296" lon="-0.39951">
        <ele>283.7</ele>
        <time>2013-08-20T18:59:27Z</time>
      </trkpt>
      <trkpt lat="48.55404" lon="-0.40031">
        <ele>262.5</ele>
        <time>2013-08-20T19:01:10Z</time>
      </trkpt>
      <trkpt lat="48.55432" lon="-0.40038">
        <ele>261</ele>
        <time>2013-08-20T19:01:36Z</time>
      </trkpt>
      <trkpt lat="48.55437" lon="-0.40035">
        <ele>261</ele>
        <time>2013-08-20T19:01:52Z</time>
      </trkpt>
      <trkpt lat="48.55494" lon="-0.4007">
        <ele>228.2</ele>
        <time>2013-08-20T19:02:30Z</time>
      </trkpt>
      <trkpt lat="48.55558" lon="-0.40109">
        <ele>216.1</ele>
        <time>2013-08-20T19:03:22Z</time>
      </trkpt>
      <trkpt lat="48.55551" lon="-0.4014">
        <ele>232.7</ele>
        <time>2013-08-20T19:04:00Z</time>
      </trkpt>
      <trkpt lat="48.55567" lon="-0.40146">
        <ele>210.6</ele>
        <time>2013-08-20T19:04:22Z</time>
      </trkpt>
      <trkpt lat="48.55558" lon="-0.40191">
        <ele>217.3</ele>
        <time>2013-08-20T19:04:50Z</time>
      </trkpt>
      <trkpt lat="48.55522" lon="-0.40235">
        <ele>252.2</ele>
        <time>2013-08-20T19:05:22Z</time>
      </trkpt>
      <trkpt lat="48.55494" lon="-0.40273">
        <ele>249.6</ele>
        <time>2013-08-20T19:05:56Z</time>
      </trkpt>
      <trkpt lat="48.55441" lon="-0.40309">
        <ele>262.9</ele>
        <time>2013-08-20T19:06:29Z</time>
      </trkpt>
      <trkpt lat="48.55408" lon="-0.40316">
        <ele>262.5</ele>
        <time>2013-08-20T19:06:58Z</time>
      </trkpt>
      <trkpt lat="48.55381" lon="-0.40302">
        <ele>284.8</ele>
        <time>2013-08-20T19:07:28Z</time>
      </trkpt>
      <trkpt lat="48.55333" lon="-0.40368">
        <ele>284.6</ele>
        <time>2013-08-20T19:07:50Z</time>
      </trkpt>
      <trkpt lat="48.55317" lon="-0.40328">
        <ele>262.2</ele>
        <time>2013-08-20T19:08:25Z</time>
      </trkpt>
      <trkpt lat="48.55271" lon="-0.40363">
        <ele>235.1</ele>
        <time>2013-08-20T19:09:01Z</time>
      </trkpt>
      <trkpt lat="48.55259" lon="-0.40379">
        <ele>247.3</ele>
        <time>2013-08-20T19:09:28Z</time>
      </trkpt>
      <trkpt lat="48.55213" lon="-0.40405">
        <ele>206</ele>
        <time>2013-08-20T19:09:53Z</time>
      </trkpt>
      <trkpt lat="48.55215" lon="-0.4046">
        <ele>227.2</ele>
        <time>2013-08-20T19:10:24Z</time>
      </trkpt>
      <trkpt lat="48.55173" lon="-0.40496">
        <ele>224.1</ele>
        <time>2013-08-20T19:10:50Z</time>
      </trkpt>
      <trkpt lat="48.55131" lon="-0.40471">
        <ele>222.4</ele>
        <time>2013-08-20T19:11:19Z</time>
      </trkpt>
      <trkpt lat="48.55088" lon="-0.40543">
        <ele>243.4</ele>
        <time>2013-08-20T19:11:59Z</time>
      </trkpt>
      <trkpt lat="48.55064" lon="-0.40542">
        <ele>243.7</ele>
        <time>2013-08-20T19:12:19Z</time>
      </trkpt>
      <trkpt lat="48.55001" lon="-0.40578">
        <ele>173.7</ele>
        <time>2013-08-20T19:13:00Z</time>
      </trkpt>
      <trkpt lat="48.55014" lon="-0.40658">
        <ele>232.4</ele>
        <time>2013-08-20T19:13:28Z</time>
      </trkpt>
      <trkpt lat="48.5498" lon="-0.40672">
        <ele>219.2</ele>
        <time>2013-08-20T19:13:53Z</time>
      </trkpt>
      <trkpt lat="48.5497" lon="-0.40732">
        <ele>230.5</ele>
        <time>2013-08-20T19:14:24Z</time>
      </trkpt>
      <trkpt lat="48.54961" lon="-0.40844">
        <ele>236.1</ele>
        <time>2013-08-20T19:15:00Z</time>
      </trkpt>
      <trkpt lat="48.54938" lon="-0.40877">
        <ele>243.5</ele>
        <time>2013-08-20T19:15:27Z</time>
      </trkpt>
      <trkpt lat="48.54922" lon="-0.4093">
        <ele>283.8</ele>
        <time>2013-08-20T19:16:02Z</time>
      </trkpt>
      <trkpt lat="48.54906" lon="-0.40959">
        <ele>260</ele>
        <time>2013-08-20T19:16:27Z</time>
      </trkpt>
      <trkpt lat="48.54932" lon="-0.41057">
        <ele>224.2</ele>
        <time>2013-08-20T19:16:52Z</time>
      </trkpt>
      <trkpt lat="48.54938" lon="-0.41114">
        <ele>217.6</ele>
        <time>2013-08-20T19:17:20Z</time>
      </trkpt>
      <trkpt lat="48.54941" lon="-0.41181">
        <ele>221</ele>
        <time>2013-08-20T19:17:53Z</time>
      </trkpt>
      <trkpt lat="48.54956" lon="-0.41251">
        <ele>230.7</ele>
        <time>2013-08-20T19:18:26Z</time>
      </trkpt>
      <trkpt lat="48.54958" lon="-0.41305">
        <ele>249</ele>
        <time>2013-08-20T19:18:53Z</time>
      </trkpt>
      <trkpt lat="48.54922" lon="-0.41362">
        <ele>240.3</ele>
        <time>2013-08-20T19:19:23Z</time>
      </trkpt>
      <trkpt lat="48.54893" lon="-0.41404">
        <ele>244.6</ele>
        <time>2013-08-20T19:19:55Z</time>
      </trkpt>
      <trkpt lat="48.54868" lon="-0.41432">
        <ele>223.4</ele>
        <time>2013-08-20T19:20:30Z</time>
      </trkpt>
      <trkpt lat="48.54841" lon="-0.4146">
        <ele>201.2</ele>
        <time>2013-08-20T19:20:59Z</time>
      </trkpt>
      <trkpt lat="48.54888" lon="-0.41583">
        <ele>225.6</ele>
        <time>2013-08-20T19:21:49Z</time>
      </trkpt>
      <trkpt lat="48.54908" lon="-0.41663">
        <ele>225.6</ele>
        <time>2013-08-20T19:22:20Z</time>
      </trkpt>
      <trkpt lat="48.54947" lon="-0.41691">
        <ele>224.6</ele>
        <time>2013-08-20T19:22:57Z</time>
      </trkpt>
      <trkpt lat="48.54958" lon="-0.4177">
        <ele>194.1</ele>
        <time>2013-08-20T19:23:54Z</time>
      </trkpt>
      <trkpt lat="48.54958" lon="-0.41845">
        <ele>190.7</ele>
        <time>2013-08-20T19:24:19Z</time>
      </trkpt>
      <trkpt lat="48.54954" lon="-0.4189">
        <ele>233.9</ele>
        <time>2013-08-20T19:24:53Z</time>
      </trkpt>
      <trkpt lat="48.54896" lon="-0.41911">
        <ele>207.4</ele>
        <time>2013-08-20T19:25:20Z</time>
      </trkpt>
      <trkpt lat="48.54868" lon="-0.41959">
        <ele>207.8</ele>
        <time>2013-08-20T19:25:49Z</time>
      </trkpt>
      <trkpt lat="48.54819" lon="-0.41984">
        <ele>190.6</ele>
        <time>2013-08-20T19:26:20Z</time>
      </trkpt>
      <trkpt lat="48.54784" lon="-0.4201">
        <ele>228.8</ele>
        <time>2013-08-20T19:26:55Z</time>
      </trkpt>
      <trkpt lat="48.54769" lon="-0.41986">
        <ele>181.1</ele>
        <time>2013-08-20T19:27:20Z</time>
      </trkpt>
      <trkpt lat="48.54737" lon="-0.42021">
        <ele>212.3</ele>
        <time>2013-08-20T19:27:49Z</time>
      </trkpt>
      <trkpt lat="48.54754" lon="-0.4195">
        <ele>174.2</ele>
        <time>2013-08-20T19:28:21Z</time>
      </trkpt>
      <trkpt lat="48.54737" lon="-0.41906">
        <ele>213.8</ele>
        <time>2013-08-20T19:28:48Z</time>
      </trkpt>
      <trkpt lat="48.54721" lon="-0.41869">
        <ele>207.4</ele>
        <time>2013-08-20T19:29:21Z</time>
      </trkpt>
      <trkpt lat="48.54731" lon="-0.41857">
        <ele>207.6</ele>
        <time>2013-08-20T19:29:55Z</time>
      </trkpt>
      <trkpt lat="48.54715" lon="-0.41842">
        <ele>194.2</ele>
        <time>2013-08-20T19:30:21Z</time>
      </trkpt>
    </trkseg>
  </trk>
</gpx>